<?xml version="1.0" encoding="UTF-8" standalone="no" ?><gpx xmlns="http://www.topografix.com/GPX/1/1" xmlns:gpxx="http://www.garmin.com/xmlschemas/GpxExtensions/v3" xmlns:wptx1="http://www.garmin.com/xmlschemas/WaypointExtension/v1" xmlns:gpxtpx="http://www.garmin.com/xmlschemas/TrackPointExtension/v1" creator="GuideVTT.com" version="1.1" xmlns:xsi="http://www.w3.org/2001/XMLSchema-instance" xsi:schemaLocation="http://www.topografix.com/GPX/1/1 http://www.topografix.com/GPX/1/1/gpx.xsd http://www.garmin.com/xmlschemas/GpxExtensions/v3 http://www8.garmin.com/xmlschemas/GpxExtensionsv3.xsd http://www.garmin.com/xmlschemas/WaypointExtension/v1 http://www8.garmin.com/xmlschemas/WaypointExtensionv1.xsd http://www.garmin.com/xmlschemas/TrackPointExtension/v1 http://www.garmin.com/xmlschemas/TrackPointExtensionv1.xsd">
<metadata><link href="http://www.garmin.com"><text>Garmin International</text></link><time>2013-06-22T15:13:50Z</time></metadata>
<trk><name>2020-09-25_1123__20200925_1123.gpx</name><extensions><gpxx:TrackExtension><gpxx:DisplayColor>Cyan</gpxx:DisplayColor></gpxx:TrackExtension></extensions><trkseg>
<trkpt lat="48.9585993" lon="3.1431599"><ele>60.69</ele><time>2026-4-28T19:41:27Z</time></trkpt>
<trkpt lat="48.9586596" lon="3.1434447"><ele>56.48</ele><time>2026-4-28T19:41:30Z</time></trkpt>
<trkpt lat="48.9588212" lon="3.1436325"><ele>57.26</ele><time>2026-4-28T19:41:33Z</time></trkpt>
<trkpt lat="48.9589871" lon="3.1438064"><ele>58.21</ele><time>2026-4-28T19:41:36Z</time></trkpt>
<trkpt lat="48.9591528" lon="3.1439818"><ele>58.19</ele><time>2026-4-28T19:41:39Z</time></trkpt>
<trkpt lat="48.9591255" lon="3.1442627"><ele>58.25</ele><time>2026-4-28T19:41:42Z</time></trkpt>
<trkpt lat="48.9590097" lon="3.1444909"><ele>57.02</ele><time>2026-4-28T19:41:45Z</time></trkpt>
<trkpt lat="48.9589048" lon="3.1447342"><ele>56.00</ele><time>2026-4-28T19:41:48Z</time></trkpt>
<trkpt lat="48.9588271" lon="3.1449893"><ele>55.97</ele><time>2026-4-28T19:41:51Z</time></trkpt>
<trkpt lat="48.9589213" lon="3.1452255"><ele>56.68</ele><time>2026-4-28T19:41:54Z</time></trkpt>
<trkpt lat="48.9590689" lon="3.1454278"><ele>57.54</ele><time>2026-4-28T19:41:57Z</time></trkpt>
<trkpt lat="48.9592259" lon="3.1456450"><ele>57.38</ele><time>2026-4-28T19:42:0Z</time></trkpt>
<trkpt lat="48.9593471" lon="3.1458485"><ele>57.15</ele><time>2026-4-28T19:42:3Z</time></trkpt>
<trkpt lat="48.9592586" lon="3.1461186"><ele>58.66</ele><time>2026-4-28T19:42:6Z</time></trkpt>
<trkpt lat="48.9591484" lon="3.1463530"><ele>59.56</ele><time>2026-4-28T19:42:9Z</time></trkpt>
<trkpt lat="48.9592362" lon="3.1466101"><ele>61.18</ele><time>2026-4-28T19:42:12Z</time></trkpt>
<trkpt lat="48.9593736" lon="3.1468325"><ele>62.27</ele><time>2026-4-28T19:42:15Z</time></trkpt>
<trkpt lat="48.9595119" lon="3.1470496"><ele>62.82</ele><time>2026-4-28T19:42:18Z</time></trkpt>
<trkpt lat="48.9596359" lon="3.1473052"><ele>63.37</ele><time>2026-4-28T19:42:21Z</time></trkpt>
<trkpt lat="48.9596148" lon="3.1475934"><ele>63.35</ele><time>2026-4-28T19:42:24Z</time></trkpt>
<trkpt lat="48.9594362" lon="3.1477395"><ele>62.13</ele><time>2026-4-28T19:42:27Z</time></trkpt>
<trkpt lat="48.9592623" lon="3.1478886"><ele>63.52</ele><time>2026-4-28T19:42:30Z</time></trkpt>
<trkpt lat="48.9590906" lon="3.1480577"><ele>64.46</ele><time>2026-4-28T19:42:33Z</time></trkpt>
<trkpt lat="48.9589823" lon="3.1483075"><ele>67.14</ele><time>2026-4-28T19:42:36Z</time></trkpt>
<trkpt lat="48.9589513" lon="3.1485844"><ele>68.38</ele><time>2026-4-28T19:42:39Z</time></trkpt>
<trkpt lat="48.9590937" lon="3.1487674"><ele>70.74</ele><time>2026-4-28T19:42:42Z</time></trkpt>
<trkpt lat="48.9592300" lon="3.1489568"><ele>72.04</ele><time>2026-4-28T19:42:45Z</time></trkpt>
<trkpt lat="48.9593632" lon="3.1491557"><ele>73.28</ele><time>2026-4-28T19:42:48Z</time></trkpt>
<trkpt lat="48.9594906" lon="3.1493512"><ele>74.56</ele><time>2026-4-28T19:42:51Z</time></trkpt>
<trkpt lat="48.9596266" lon="3.1495758"><ele>74.94</ele><time>2026-4-28T19:42:54Z</time></trkpt>
<trkpt lat="48.9597678" lon="3.1497780"><ele>73.73</ele><time>2026-4-28T19:42:57Z</time></trkpt>
<trkpt lat="48.9596729" lon="3.1500372"><ele>73.29</ele><time>2026-4-28T19:43:0Z</time></trkpt>
<trkpt lat="48.9595244" lon="3.1502297"><ele>73.98</ele><time>2026-4-28T19:43:3Z</time></trkpt>
<trkpt lat="48.9593774" lon="3.1504113"><ele>76.57</ele><time>2026-4-28T19:43:6Z</time></trkpt>
<trkpt lat="48.9592073" lon="3.1505753"><ele>77.27</ele><time>2026-4-28T19:43:9Z</time></trkpt>
<trkpt lat="48.9590416" lon="3.1507344"><ele>79.95</ele><time>2026-4-28T19:43:12Z</time></trkpt>
<trkpt lat="48.9588966" lon="3.1509089"><ele>82.84</ele><time>2026-4-28T19:43:15Z</time></trkpt>
<trkpt lat="48.9587328" lon="3.1510523"><ele>85.02</ele><time>2026-4-28T19:43:18Z</time></trkpt>
<trkpt lat="48.9585545" lon="3.1511595"><ele>89.11</ele><time>2026-4-28T19:43:21Z</time></trkpt>
<trkpt lat="48.9583706" lon="3.1512005"><ele>91.28</ele><time>2026-4-28T19:43:24Z</time></trkpt>
<trkpt lat="48.9581787" lon="3.1512551"><ele>91.35</ele><time>2026-4-28T19:43:27Z</time></trkpt>
<trkpt lat="48.9579849" lon="3.1512165"><ele>92.51</ele><time>2026-4-28T19:43:30Z</time></trkpt>
<trkpt lat="48.9578080" lon="3.1512933"><ele>100.22</ele><time>2026-4-28T19:43:33Z</time></trkpt>
<trkpt lat="48.9576466" lon="3.1514956"><ele>103.10</ele><time>2026-4-28T19:43:36Z</time></trkpt>
<trkpt lat="48.9574952" lon="3.1516698"><ele>107.50</ele><time>2026-4-28T19:43:39Z</time></trkpt>
<trkpt lat="48.9573471" lon="3.1518536"><ele>109.88</ele><time>2026-4-28T19:43:42Z</time></trkpt>
<trkpt lat="48.9571900" lon="3.1520354"><ele>111.85</ele><time>2026-4-28T19:43:45Z</time></trkpt>
<trkpt lat="48.9570024" lon="3.1520733"><ele>113.58</ele><time>2026-4-28T19:43:48Z</time></trkpt>
<trkpt lat="48.9568371" lon="3.1519620"><ele>118.68</ele><time>2026-4-28T19:43:51Z</time></trkpt>
<trkpt lat="48.9566557" lon="3.1518861"><ele>120.82</ele><time>2026-4-28T19:43:54Z</time></trkpt>
<trkpt lat="48.9564686" lon="3.1519704"><ele>121.98</ele><time>2026-4-28T19:43:57Z</time></trkpt>
<trkpt lat="48.9562841" lon="3.1520914"><ele>121.27</ele><time>2026-4-28T19:44:0Z</time></trkpt>
<trkpt lat="48.9561194" lon="3.1522248"><ele>122.68</ele><time>2026-4-28T19:44:3Z</time></trkpt>
<trkpt lat="48.9559514" lon="3.1523618"><ele>126.74</ele><time>2026-4-28T19:44:6Z</time></trkpt>
<trkpt lat="48.9557852" lon="3.1524968"><ele>128.58</ele><time>2026-4-28T19:44:9Z</time></trkpt>
<trkpt lat="48.9556155" lon="3.1525907"><ele>132.87</ele><time>2026-4-28T19:44:12Z</time></trkpt>
<trkpt lat="48.9554361" lon="3.1526822"><ele>136.38</ele><time>2026-4-28T19:44:15Z</time></trkpt>
<trkpt lat="48.9552703" lon="3.1527960"><ele>137.64</ele><time>2026-4-28T19:44:18Z</time></trkpt>
<trkpt lat="48.9551076" lon="3.1529136"><ele>140.33</ele><time>2026-4-28T19:44:21Z</time></trkpt>
<trkpt lat="48.9549498" lon="3.1530721"><ele>146.78</ele><time>2026-4-28T19:44:24Z</time></trkpt>
<trkpt lat="48.9548141" lon="3.1532630"><ele>145.41</ele><time>2026-4-28T19:44:27Z</time></trkpt>
<trkpt lat="48.9546519" lon="3.1533849"><ele>146.53</ele><time>2026-4-28T19:44:30Z</time></trkpt>
<trkpt lat="48.9545156" lon="3.1536143"><ele>146.59</ele><time>2026-4-28T19:44:33Z</time></trkpt>
<trkpt lat="48.9544231" lon="3.1538795"><ele>143.37</ele><time>2026-4-28T19:44:36Z</time></trkpt>
<trkpt lat="48.9542794" lon="3.1540859"><ele>144.14</ele><time>2026-4-28T19:44:39Z</time></trkpt>
<trkpt lat="48.9541340" lon="3.1542811"><ele>145.07</ele><time>2026-4-28T19:44:42Z</time></trkpt>
<trkpt lat="48.9540120" lon="3.1544834"><ele>150.60</ele><time>2026-4-28T19:44:45Z</time></trkpt>
<trkpt lat="48.9538883" lon="3.1547109"><ele>149.76</ele><time>2026-4-28T19:44:48Z</time></trkpt>
<trkpt lat="48.9537587" lon="3.1549131"><ele>152.44</ele><time>2026-4-28T19:44:51Z</time></trkpt>
<trkpt lat="48.9536282" lon="3.1551361"><ele>153.86</ele><time>2026-4-28T19:44:54Z</time></trkpt>
<trkpt lat="48.9535014" lon="3.1553588"><ele>156.50</ele><time>2026-4-28T19:44:57Z</time></trkpt>
<trkpt lat="48.9533723" lon="3.1555658"><ele>157.50</ele><time>2026-4-28T19:45:0Z</time></trkpt>
<trkpt lat="48.9533255" lon="3.1558433"><ele>157.24</ele><time>2026-4-28T19:45:3Z</time></trkpt>
<trkpt lat="48.9532526" lon="3.1561037"><ele>156.92</ele><time>2026-4-28T19:45:6Z</time></trkpt>
<trkpt lat="48.9531959" lon="3.1563706"><ele>154.79</ele><time>2026-4-28T19:45:9Z</time></trkpt>
<trkpt lat="48.9531599" lon="3.1566621"><ele>157.16</ele><time>2026-4-28T19:45:12Z</time></trkpt>
<trkpt lat="48.9531099" lon="3.1569601"><ele>160.44</ele><time>2026-4-28T19:45:15Z</time></trkpt>
<trkpt lat="48.9530516" lon="3.1572385"><ele>164.22</ele><time>2026-4-28T19:45:18Z</time></trkpt>
<trkpt lat="48.9529999" lon="3.1575205"><ele>162.62</ele><time>2026-4-28T19:45:21Z</time></trkpt>
<trkpt lat="48.9529663" lon="3.1578092"><ele>163.01</ele><time>2026-4-28T19:45:24Z</time></trkpt>
<trkpt lat="48.9529111" lon="3.1580862"><ele>165.29</ele><time>2026-4-28T19:45:27Z</time></trkpt>
<trkpt lat="48.9528285" lon="3.1583628"><ele>165.87</ele><time>2026-4-28T19:45:30Z</time></trkpt>
<trkpt lat="48.9526993" lon="3.1585996"><ele>166.71</ele><time>2026-4-28T19:45:33Z</time></trkpt>
<trkpt lat="48.9525189" lon="3.1587177"><ele>166.83</ele><time>2026-4-28T19:45:36Z</time></trkpt>
<trkpt lat="48.9523259" lon="3.1587421"><ele>165.60</ele><time>2026-4-28T19:45:39Z</time></trkpt>
<trkpt lat="48.9521190" lon="3.1587742"><ele>166.80</ele><time>2026-4-28T19:45:42Z</time></trkpt>
<trkpt lat="48.9519298" lon="3.1587341"><ele>162.69</ele><time>2026-4-28T19:45:45Z</time></trkpt>
<trkpt lat="48.9517371" lon="3.1587767"><ele>164.03</ele><time>2026-4-28T19:45:48Z</time></trkpt>
<trkpt lat="48.9515611" lon="3.1589099"><ele>167.62</ele><time>2026-4-28T19:45:51Z</time></trkpt>
<trkpt lat="48.9514006" lon="3.1590378"><ele>169.02</ele><time>2026-4-28T19:45:54Z</time></trkpt>
<trkpt lat="48.9512248" lon="3.1591369"><ele>172.45</ele><time>2026-4-28T19:45:57Z</time></trkpt>
<trkpt lat="48.9510655" lon="3.1592981"><ele>171.15</ele><time>2026-4-28T19:46:0Z</time></trkpt>
<trkpt lat="48.9509062" lon="3.1594743"><ele>172.94</ele><time>2026-4-28T19:46:3Z</time></trkpt>
<trkpt lat="48.9507565" lon="3.1596384"><ele>174.33</ele><time>2026-4-28T19:46:6Z</time></trkpt>
<trkpt lat="48.9509295" lon="3.1594860"><ele>170.01</ele><time>2026-4-28T19:46:9Z</time></trkpt>
<trkpt lat="48.9510781" lon="3.1596565"><ele>169.04</ele><time>2026-4-28T19:46:12Z</time></trkpt>
<trkpt lat="48.9512065" lon="3.1598492"><ele>172.51</ele><time>2026-4-28T19:46:15Z</time></trkpt>
<trkpt lat="48.9512696" lon="3.1601146"><ele>172.29</ele><time>2026-4-28T19:46:18Z</time></trkpt>
<trkpt lat="48.9513793" lon="3.1603695"><ele>171.91</ele><time>2026-4-28T19:46:21Z</time></trkpt>
<trkpt lat="48.9515409" lon="3.1605618"><ele>177.27</ele><time>2026-4-28T19:46:24Z</time></trkpt>
<trkpt lat="48.9516907" lon="3.1607689"><ele>174.82</ele><time>2026-4-28T19:46:27Z</time></trkpt>
<trkpt lat="48.9518484" lon="3.1609524"><ele>176.83</ele><time>2026-4-28T19:46:30Z</time></trkpt>
<trkpt lat="48.9519606" lon="3.1611749"><ele>175.39</ele><time>2026-4-28T19:46:33Z</time></trkpt>
<trkpt lat="48.9521087" lon="3.1614112"><ele>174.37</ele><time>2026-4-28T19:46:36Z</time></trkpt>
<trkpt lat="48.9521999" lon="3.1617013"><ele>174.49</ele><time>2026-4-28T19:46:39Z</time></trkpt>
<trkpt lat="48.9523054" lon="3.1619320"><ele>175.37</ele><time>2026-4-28T19:46:42Z</time></trkpt>
<trkpt lat="48.9524330" lon="3.1621302"><ele>176.83</ele><time>2026-4-28T19:46:45Z</time></trkpt>
<trkpt lat="48.9525321" lon="3.1624008"><ele>180.11</ele><time>2026-4-28T19:46:48Z</time></trkpt>
<trkpt lat="48.9526158" lon="3.1626768"><ele>181.59</ele><time>2026-4-28T19:46:51Z</time></trkpt>
<trkpt lat="48.9527234" lon="3.1629019"><ele>181.13</ele><time>2026-4-28T19:46:54Z</time></trkpt>
<trkpt lat="48.9528389" lon="3.1631408"><ele>179.93</ele><time>2026-4-28T19:46:57Z</time></trkpt>
<trkpt lat="48.9529120" lon="3.1634212"><ele>180.43</ele><time>2026-4-28T19:47:0Z</time></trkpt>
<trkpt lat="48.9529820" lon="3.1636922"><ele>182.58</ele><time>2026-4-28T19:47:3Z</time></trkpt>
<trkpt lat="48.9530823" lon="3.1639596"><ele>183.40</ele><time>2026-4-28T19:47:6Z</time></trkpt>
<trkpt lat="48.9531135" lon="3.1642518"><ele>179.78</ele><time>2026-4-28T19:47:9Z</time></trkpt>
<trkpt lat="48.9532345" lon="3.1644998"><ele>178.55</ele><time>2026-4-28T19:47:12Z</time></trkpt>
<trkpt lat="48.9533606" lon="3.1647009"><ele>179.13</ele><time>2026-4-28T19:47:15Z</time></trkpt>
<trkpt lat="48.9534733" lon="3.1649320"><ele>178.30</ele><time>2026-4-28T19:47:18Z</time></trkpt>
<trkpt lat="48.9535914" lon="3.1651939"><ele>179.65</ele><time>2026-4-28T19:47:21Z</time></trkpt>
<trkpt lat="48.9536697" lon="3.1654712"><ele>179.06</ele><time>2026-4-28T19:47:24Z</time></trkpt>
<trkpt lat="48.9537414" lon="3.1657322"><ele>184.05</ele><time>2026-4-28T19:47:27Z</time></trkpt>
<trkpt lat="48.9538300" lon="3.1659893"><ele>185.50</ele><time>2026-4-28T19:47:30Z</time></trkpt>
<trkpt lat="48.9538926" lon="3.1662590"><ele>184.38</ele><time>2026-4-28T19:47:33Z</time></trkpt>
<trkpt lat="48.9540061" lon="3.1664829"><ele>182.04</ele><time>2026-4-28T19:47:36Z</time></trkpt>
<trkpt lat="48.9540830" lon="3.1667719"><ele>178.85</ele><time>2026-4-28T19:47:39Z</time></trkpt>
<trkpt lat="48.9541844" lon="3.1670056"><ele>179.61</ele><time>2026-4-28T19:47:42Z</time></trkpt>
<trkpt lat="48.9542881" lon="3.1672658"><ele>178.95</ele><time>2026-4-28T19:47:45Z</time></trkpt>
<trkpt lat="48.9543642" lon="3.1675381"><ele>183.26</ele><time>2026-4-28T19:47:48Z</time></trkpt>
<trkpt lat="48.9544713" lon="3.1678098"><ele>183.40</ele><time>2026-4-28T19:47:51Z</time></trkpt>
<trkpt lat="48.9545869" lon="3.1680604"><ele>182.90</ele><time>2026-4-28T19:47:54Z</time></trkpt>
<trkpt lat="48.9546428" lon="3.1683317"><ele>182.60</ele><time>2026-4-28T19:47:57Z</time></trkpt>
<trkpt lat="48.9546783" lon="3.1686170"><ele>183.38</ele><time>2026-4-28T19:48:0Z</time></trkpt>
<trkpt lat="48.9546338" lon="3.1689141"><ele>182.60</ele><time>2026-4-28T19:48:3Z</time></trkpt>
<trkpt lat="48.9545657" lon="3.1692126"><ele>183.93</ele><time>2026-4-28T19:48:6Z</time></trkpt>
<trkpt lat="48.9544702" lon="3.1694774"><ele>184.02</ele><time>2026-4-28T19:48:9Z</time></trkpt>
<trkpt lat="48.9543646" lon="3.1697247"><ele>182.98</ele><time>2026-4-28T19:48:12Z</time></trkpt>
<trkpt lat="48.9543780" lon="3.1700330"><ele>181.24</ele><time>2026-4-28T19:48:15Z</time></trkpt>
<trkpt lat="48.9544254" lon="3.1703386"><ele>181.81</ele><time>2026-4-28T19:48:18Z</time></trkpt>
<trkpt lat="48.9544485" lon="3.1706457"><ele>184.64</ele><time>2026-4-28T19:48:21Z</time></trkpt>
<trkpt lat="48.9543689" lon="3.1709033"><ele>182.93</ele><time>2026-4-28T19:48:24Z</time></trkpt>
<trkpt lat="48.9542884" lon="3.1711679"><ele>182.92</ele><time>2026-4-28T19:48:27Z</time></trkpt>
<trkpt lat="48.9542058" lon="3.1714263"><ele>182.09</ele><time>2026-4-28T19:48:30Z</time></trkpt>
<trkpt lat="48.9541175" lon="3.1717231"><ele>179.69</ele><time>2026-4-28T19:48:33Z</time></trkpt>
<trkpt lat="48.9540397" lon="3.1719755"><ele>177.08</ele><time>2026-4-28T19:48:36Z</time></trkpt>
<trkpt lat="48.9539530" lon="3.1722859"><ele>173.25</ele><time>2026-4-28T19:48:39Z</time></trkpt>
<trkpt lat="48.9538645" lon="3.1725955"><ele>171.11</ele><time>2026-4-28T19:48:42Z</time></trkpt>
<trkpt lat="48.9537730" lon="3.1728933"><ele>168.29</ele><time>2026-4-28T19:48:45Z</time></trkpt>
<trkpt lat="48.9536650" lon="3.1732048"><ele>167.03</ele><time>2026-4-28T19:48:48Z</time></trkpt>
<trkpt lat="48.9535638" lon="3.1735343"><ele>167.07</ele><time>2026-4-28T19:48:51Z</time></trkpt>
<trkpt lat="48.9534781" lon="3.1738240"><ele>166.58</ele><time>2026-4-28T19:48:54Z</time></trkpt>
<trkpt lat="48.9534031" lon="3.1740842"><ele>164.24</ele><time>2026-4-28T19:48:57Z</time></trkpt>
<trkpt lat="48.9533273" lon="3.1744203"><ele>163.23</ele><time>2026-4-28T19:49:0Z</time></trkpt>
<trkpt lat="48.9532479" lon="3.1746961"><ele>163.98</ele><time>2026-4-28T19:49:3Z</time></trkpt>
<trkpt lat="48.9531309" lon="3.1749152"><ele>164.42</ele><time>2026-4-28T19:49:6Z</time></trkpt>
<trkpt lat="48.9530563" lon="3.1751839"><ele>163.72</ele><time>2026-4-28T19:49:9Z</time></trkpt>
<trkpt lat="48.9528892" lon="3.1752961"><ele>162.71</ele><time>2026-4-28T19:49:12Z</time></trkpt>
<trkpt lat="48.9527087" lon="3.1752555"><ele>162.06</ele><time>2026-4-28T19:49:15Z</time></trkpt>
<trkpt lat="48.9525140" lon="3.1752370"><ele>163.68</ele><time>2026-4-28T19:49:18Z</time></trkpt>
<trkpt lat="48.9523132" lon="3.1752384"><ele>164.36</ele><time>2026-4-28T19:49:21Z</time></trkpt>
<trkpt lat="48.9521178" lon="3.1752520"><ele>164.07</ele><time>2026-4-28T19:49:24Z</time></trkpt>
<trkpt lat="48.9519268" lon="3.1753424"><ele>165.25</ele><time>2026-4-28T19:49:27Z</time></trkpt>
<trkpt lat="48.9517588" lon="3.1755083"><ele>165.80</ele><time>2026-4-28T19:49:30Z</time></trkpt>
<trkpt lat="48.9516343" lon="3.1757363"><ele>165.61</ele><time>2026-4-28T19:49:33Z</time></trkpt>
<trkpt lat="48.9518012" lon="3.1758611"><ele>164.49</ele><time>2026-4-28T19:49:36Z</time></trkpt>
<trkpt lat="48.9519909" lon="3.1759389"><ele>165.54</ele><time>2026-4-28T19:49:39Z</time></trkpt>
<trkpt lat="48.9521770" lon="3.1760268"><ele>165.97</ele><time>2026-4-28T19:49:42Z</time></trkpt>
<trkpt lat="48.9523786" lon="3.1761186"><ele>165.81</ele><time>2026-4-28T19:49:45Z</time></trkpt>
<trkpt lat="48.9525810" lon="3.1762003"><ele>166.18</ele><time>2026-4-28T19:49:48Z</time></trkpt>
<trkpt lat="48.9527874" lon="3.1762766"><ele>165.60</ele><time>2026-4-28T19:49:51Z</time></trkpt>
<trkpt lat="48.9529911" lon="3.1763577"><ele>164.73</ele><time>2026-4-28T19:49:54Z</time></trkpt>
<trkpt lat="48.9532005" lon="3.1764594"><ele>164.46</ele><time>2026-4-28T19:49:57Z</time></trkpt>
<trkpt lat="48.9534114" lon="3.1765456"><ele>164.98</ele><time>2026-4-28T19:50:0Z</time></trkpt>
<trkpt lat="48.9536269" lon="3.1765605"><ele>164.63</ele><time>2026-4-28T19:50:3Z</time></trkpt>
<trkpt lat="48.9538296" lon="3.1765213"><ele>162.97</ele><time>2026-4-28T19:50:6Z</time></trkpt>
<trkpt lat="48.9540207" lon="3.1764726"><ele>165.55</ele><time>2026-4-28T19:50:9Z</time></trkpt>
<trkpt lat="48.9542241" lon="3.1764518"><ele>166.22</ele><time>2026-4-28T19:50:12Z</time></trkpt>
<trkpt lat="48.9544127" lon="3.1764397"><ele>166.16</ele><time>2026-4-28T19:50:15Z</time></trkpt>
<trkpt lat="48.9546081" lon="3.1764637"><ele>164.32</ele><time>2026-4-28T19:50:18Z</time></trkpt>
<trkpt lat="48.9547890" lon="3.1765094"><ele>164.12</ele><time>2026-4-28T19:50:21Z</time></trkpt>
<trkpt lat="48.9549727" lon="3.1765391"><ele>164.34</ele><time>2026-4-28T19:50:24Z</time></trkpt>
<trkpt lat="48.9551592" lon="3.1765831"><ele>165.27</ele><time>2026-4-28T19:50:27Z</time></trkpt>
<trkpt lat="48.9553346" lon="3.1766661"><ele>162.69</ele><time>2026-4-28T19:50:30Z</time></trkpt>
<trkpt lat="48.9555025" lon="3.1767718"><ele>160.99</ele><time>2026-4-28T19:50:33Z</time></trkpt>
<trkpt lat="48.9556713" lon="3.1768926"><ele>161.06</ele><time>2026-4-28T19:50:36Z</time></trkpt>
<trkpt lat="48.9558098" lon="3.1770763"><ele>159.66</ele><time>2026-4-28T19:50:39Z</time></trkpt>
<trkpt lat="48.9559187" lon="3.1773210"><ele>158.85</ele><time>2026-4-28T19:50:42Z</time></trkpt>
<trkpt lat="48.9560287" lon="3.1776029"><ele>158.80</ele><time>2026-4-28T19:50:45Z</time></trkpt>
<trkpt lat="48.9561613" lon="3.1778480"><ele>158.47</ele><time>2026-4-28T19:50:48Z</time></trkpt>
<trkpt lat="48.9563257" lon="3.1779921"><ele>158.74</ele><time>2026-4-28T19:50:51Z</time></trkpt>
<trkpt lat="48.9565458" lon="3.1780205"><ele>157.27</ele><time>2026-4-28T19:50:54Z</time></trkpt>
<trkpt lat="48.9567364" lon="3.1779917"><ele>157.66</ele><time>2026-4-28T19:50:57Z</time></trkpt>
<trkpt lat="48.9569187" lon="3.1779747"><ele>157.49</ele><time>2026-4-28T19:51:0Z</time></trkpt>
<trkpt lat="48.9571129" lon="3.1780068"><ele>159.09</ele><time>2026-4-28T19:51:3Z</time></trkpt>
<trkpt lat="48.9573127" lon="3.1779948"><ele>161.79</ele><time>2026-4-28T19:51:6Z</time></trkpt>
<trkpt lat="48.9575085" lon="3.1779132"><ele>159.06</ele><time>2026-4-28T19:51:9Z</time></trkpt>
<trkpt lat="48.9576790" lon="3.1777854"><ele>159.19</ele><time>2026-4-28T19:51:12Z</time></trkpt>
<trkpt lat="48.9578525" lon="3.1776378"><ele>160.76</ele><time>2026-4-28T19:51:15Z</time></trkpt>
<trkpt lat="48.9580129" lon="3.1774492"><ele>160.78</ele><time>2026-4-28T19:51:18Z</time></trkpt>
<trkpt lat="48.9581742" lon="3.1772413"><ele>161.22</ele><time>2026-4-28T19:51:21Z</time></trkpt>
<trkpt lat="48.9583506" lon="3.1771689"><ele>161.04</ele><time>2026-4-28T19:51:24Z</time></trkpt>
<trkpt lat="48.9585352" lon="3.1772565"><ele>161.17</ele><time>2026-4-28T19:51:27Z</time></trkpt>
<trkpt lat="48.9587264" lon="3.1773769"><ele>160.51</ele><time>2026-4-28T19:51:30Z</time></trkpt>
<trkpt lat="48.9588878" lon="3.1775486"><ele>160.31</ele><time>2026-4-28T19:51:33Z</time></trkpt>
<trkpt lat="48.9590401" lon="3.1777155"><ele>160.21</ele><time>2026-4-28T19:51:36Z</time></trkpt>
<trkpt lat="48.9592386" lon="3.1777876"><ele>160.69</ele><time>2026-4-28T19:51:39Z</time></trkpt>
<trkpt lat="48.9594254" lon="3.1777985"><ele>161.93</ele><time>2026-4-28T19:51:42Z</time></trkpt>
<trkpt lat="48.9596108" lon="3.1778096"><ele>164.66</ele><time>2026-4-28T19:51:45Z</time></trkpt>
<trkpt lat="48.9597863" lon="3.1778709"><ele>165.55</ele><time>2026-4-28T19:51:48Z</time></trkpt>
<trkpt lat="48.9599682" lon="3.1779863"><ele>166.24</ele><time>2026-4-28T19:51:51Z</time></trkpt>
<trkpt lat="48.9601455" lon="3.1780814"><ele>164.73</ele><time>2026-4-28T19:51:54Z</time></trkpt>
<trkpt lat="48.9603438" lon="3.1781570"><ele>164.52</ele><time>2026-4-28T19:51:57Z</time></trkpt>
<trkpt lat="48.9605425" lon="3.1781792"><ele>166.10</ele><time>2026-4-28T19:52:0Z</time></trkpt>
<trkpt lat="48.9607451" lon="3.1781462"><ele>166.85</ele><time>2026-4-28T19:52:3Z</time></trkpt>
<trkpt lat="48.9609315" lon="3.1780474"><ele>164.06</ele><time>2026-4-28T19:52:6Z</time></trkpt>
<trkpt lat="48.9611046" lon="3.1779565"><ele>165.56</ele><time>2026-4-28T19:52:9Z</time></trkpt>
<trkpt lat="48.9613046" lon="3.1778688"><ele>166.35</ele><time>2026-4-28T19:52:12Z</time></trkpt>
<trkpt lat="48.9615081" lon="3.1778794"><ele>167.73</ele><time>2026-4-28T19:52:15Z</time></trkpt>
<trkpt lat="48.9616872" lon="3.1779815"><ele>167.85</ele><time>2026-4-28T19:52:18Z</time></trkpt>
<trkpt lat="48.9618625" lon="3.1780930"><ele>168.89</ele><time>2026-4-28T19:52:21Z</time></trkpt>
<trkpt lat="48.9620572" lon="3.1782084"><ele>168.79</ele><time>2026-4-28T19:52:24Z</time></trkpt>
<trkpt lat="48.9622657" lon="3.1782854"><ele>170.22</ele><time>2026-4-28T19:52:27Z</time></trkpt>
<trkpt lat="48.9624433" lon="3.1783436"><ele>170.43</ele><time>2026-4-28T19:52:30Z</time></trkpt>
<trkpt lat="48.9626214" lon="3.1783921"><ele>170.90</ele><time>2026-4-28T19:52:33Z</time></trkpt>
<trkpt lat="48.9628261" lon="3.1784480"><ele>171.33</ele><time>2026-4-28T19:52:36Z</time></trkpt>
<trkpt lat="48.9630340" lon="3.1785193"><ele>170.26</ele><time>2026-4-28T19:52:39Z</time></trkpt>
<trkpt lat="48.9632367" lon="3.1785814"><ele>169.75</ele><time>2026-4-28T19:52:42Z</time></trkpt>
<trkpt lat="48.9634143" lon="3.1786355"><ele>168.36</ele><time>2026-4-28T19:52:45Z</time></trkpt>
<trkpt lat="48.9636036" lon="3.1787302"><ele>166.22</ele><time>2026-4-28T19:52:48Z</time></trkpt>
<trkpt lat="48.9634719" lon="3.1789482"><ele>163.55</ele><time>2026-4-28T19:52:51Z</time></trkpt>
<trkpt lat="48.9633256" lon="3.1791264"><ele>162.26</ele><time>2026-4-28T19:52:54Z</time></trkpt>
<trkpt lat="48.9632298" lon="3.1793952"><ele>163.49</ele><time>2026-4-28T19:52:57Z</time></trkpt>
<trkpt lat="48.9632315" lon="3.1796753"><ele>157.79</ele><time>2026-4-28T19:53:0Z</time></trkpt>
<trkpt lat="48.9632226" lon="3.1799897"><ele>152.88</ele><time>2026-4-28T19:53:3Z</time></trkpt>
<trkpt lat="48.9633200" lon="3.1802997"><ele>151.16</ele><time>2026-4-28T19:53:6Z</time></trkpt>
<trkpt lat="48.9633992" lon="3.1805769"><ele>150.29</ele><time>2026-4-28T19:53:9Z</time></trkpt>
<trkpt lat="48.9635069" lon="3.1808230"><ele>146.82</ele><time>2026-4-28T19:53:12Z</time></trkpt>
<trkpt lat="48.9636134" lon="3.1810740"><ele>144.89</ele><time>2026-4-28T19:53:15Z</time></trkpt>
<trkpt lat="48.9637069" lon="3.1813559"><ele>142.92</ele><time>2026-4-28T19:53:18Z</time></trkpt>
<trkpt lat="48.9638212" lon="3.1815700"><ele>144.11</ele><time>2026-4-28T19:53:21Z</time></trkpt>
<trkpt lat="48.9639367" lon="3.1817965"><ele>145.06</ele><time>2026-4-28T19:53:24Z</time></trkpt>
<trkpt lat="48.9640719" lon="3.1819806"><ele>142.80</ele><time>2026-4-28T19:53:27Z</time></trkpt>
<trkpt lat="48.9642440" lon="3.1821982"><ele>139.76</ele><time>2026-4-28T19:53:30Z</time></trkpt>
<trkpt lat="48.9643735" lon="3.1824113"><ele>140.69</ele><time>2026-4-28T19:53:33Z</time></trkpt>
<trkpt lat="48.9644826" lon="3.1826536"><ele>142.10</ele><time>2026-4-28T19:53:36Z</time></trkpt>
<trkpt lat="48.9645906" lon="3.1828834"><ele>137.82</ele><time>2026-4-28T19:53:39Z</time></trkpt>
<trkpt lat="48.9647655" lon="3.1831278"><ele>135.92</ele><time>2026-4-28T19:53:42Z</time></trkpt>
<trkpt lat="48.9649318" lon="3.1832707"><ele>142.52</ele><time>2026-4-28T19:53:45Z</time></trkpt>
<trkpt lat="48.9650263" lon="3.1835201"><ele>141.28</ele><time>2026-4-28T19:53:48Z</time></trkpt>
<trkpt lat="48.9652656" lon="3.1837652"><ele>137.73</ele><time>2026-4-28T19:53:51Z</time></trkpt>
<trkpt lat="48.9654729" lon="3.1839101"><ele>132.02</ele><time>2026-4-28T19:53:54Z</time></trkpt>
<trkpt lat="48.9656970" lon="3.1840352"><ele>130.30</ele><time>2026-4-28T19:53:57Z</time></trkpt>
<trkpt lat="48.9658901" lon="3.1841356"><ele>129.46</ele><time>2026-4-28T19:54:0Z</time></trkpt>
<trkpt lat="48.9660746" lon="3.1842268"><ele>128.87</ele><time>2026-4-28T19:54:3Z</time></trkpt>
<trkpt lat="48.9662599" lon="3.1843012"><ele>122.19</ele><time>2026-4-28T19:54:6Z</time></trkpt>
<trkpt lat="48.9664460" lon="3.1844215"><ele>115.50</ele><time>2026-4-28T19:54:9Z</time></trkpt>
<trkpt lat="48.9666701" lon="3.1845766"><ele>115.08</ele><time>2026-4-28T19:54:12Z</time></trkpt>
<trkpt lat="48.9668619" lon="3.1847393"><ele>111.60</ele><time>2026-4-28T19:54:15Z</time></trkpt>
<trkpt lat="48.9670568" lon="3.1848349"><ele>108.16</ele><time>2026-4-28T19:54:18Z</time></trkpt>
<trkpt lat="48.9672963" lon="3.1849198"><ele>107.55</ele><time>2026-4-28T19:54:21Z</time></trkpt>
<trkpt lat="48.9675192" lon="3.1849578"><ele>109.35</ele><time>2026-4-28T19:54:24Z</time></trkpt>
<trkpt lat="48.9676987" lon="3.1849842"><ele>109.33</ele><time>2026-4-28T19:54:27Z</time></trkpt>
<trkpt lat="48.9678880" lon="3.1849602"><ele>106.96</ele><time>2026-4-28T19:54:30Z</time></trkpt>
<trkpt lat="48.9680919" lon="3.1849167"><ele>105.41</ele><time>2026-4-28T19:54:33Z</time></trkpt>
<trkpt lat="48.9682950" lon="3.1848693"><ele>106.29</ele><time>2026-4-28T19:54:36Z</time></trkpt>
<trkpt lat="48.9684957" lon="3.1847462"><ele>108.11</ele><time>2026-4-28T19:54:39Z</time></trkpt>
<trkpt lat="48.9687032" lon="3.1846244"><ele>104.76</ele><time>2026-4-28T19:54:42Z</time></trkpt>
<trkpt lat="48.9689479" lon="3.1844870"><ele>102.87</ele><time>2026-4-28T19:54:45Z</time></trkpt>
<trkpt lat="48.9691741" lon="3.1843564"><ele>102.44</ele><time>2026-4-28T19:54:48Z</time></trkpt>
<trkpt lat="48.9694013" lon="3.1841954"><ele>99.02</ele><time>2026-4-28T19:54:51Z</time></trkpt>
<trkpt lat="48.9696153" lon="3.1841438"><ele>96.57</ele><time>2026-4-28T19:54:54Z</time></trkpt>
<trkpt lat="48.9698372" lon="3.1840561"><ele>95.56</ele><time>2026-4-28T19:54:57Z</time></trkpt>
<trkpt lat="48.9700081" lon="3.1839395"><ele>91.29</ele><time>2026-4-28T19:55:0Z</time></trkpt>
<trkpt lat="48.9701874" lon="3.1839135"><ele>77.95</ele><time>2026-4-28T19:55:3Z</time></trkpt>
<trkpt lat="48.9703485" lon="3.1840666"><ele>76.33</ele><time>2026-4-28T19:55:6Z</time></trkpt>
<trkpt lat="48.9704878" lon="3.1842760"><ele>74.41</ele><time>2026-4-28T19:55:9Z</time></trkpt>
<trkpt lat="48.9704514" lon="3.1845608"><ele>77.13</ele><time>2026-4-28T19:55:12Z</time></trkpt>
<trkpt lat="48.9702750" lon="3.1846703"><ele>78.87</ele><time>2026-4-28T19:55:15Z</time></trkpt>
<trkpt lat="48.9700960" lon="3.1847863"><ele>79.67</ele><time>2026-4-28T19:55:18Z</time></trkpt>
<trkpt lat="48.9699051" lon="3.1848993"><ele>80.66</ele><time>2026-4-28T19:55:21Z</time></trkpt>
<trkpt lat="48.9697307" lon="3.1849969"><ele>80.65</ele><time>2026-4-28T19:55:24Z</time></trkpt>
<trkpt lat="48.9695451" lon="3.1850993"><ele>80.66</ele><time>2026-4-28T19:55:27Z</time></trkpt>
<trkpt lat="48.9693655" lon="3.1852115"><ele>82.03</ele><time>2026-4-28T19:55:30Z</time></trkpt>
<trkpt lat="48.9691887" lon="3.1853157"><ele>81.87</ele><time>2026-4-28T19:55:33Z</time></trkpt>
<trkpt lat="48.9690072" lon="3.1854082"><ele>80.15</ele><time>2026-4-28T19:55:36Z</time></trkpt>
<trkpt lat="48.9688180" lon="3.1854701"><ele>82.04</ele><time>2026-4-28T19:55:39Z</time></trkpt>
<trkpt lat="48.9686440" lon="3.1855489"><ele>80.73</ele><time>2026-4-28T19:55:42Z</time></trkpt>
<trkpt lat="48.9684675" lon="3.1856256"><ele>81.12</ele><time>2026-4-28T19:55:45Z</time></trkpt>
<trkpt lat="48.9682894" lon="3.1857128"><ele>80.86</ele><time>2026-4-28T19:55:48Z</time></trkpt>
<trkpt lat="48.9680995" lon="3.1858073"><ele>80.11</ele><time>2026-4-28T19:55:51Z</time></trkpt>
<trkpt lat="48.9679056" lon="3.1858640"><ele>78.62</ele><time>2026-4-28T19:55:54Z</time></trkpt>
<trkpt lat="48.9677085" lon="3.1859118"><ele>77.07</ele><time>2026-4-28T19:55:57Z</time></trkpt>
<trkpt lat="48.9674921" lon="3.1859190"><ele>76.60</ele><time>2026-4-28T19:56:0Z</time></trkpt>
<trkpt lat="48.9672879" lon="3.1859246"><ele>77.14</ele><time>2026-4-28T19:56:3Z</time></trkpt>
<trkpt lat="48.9670951" lon="3.1859747"><ele>76.86</ele><time>2026-4-28T19:56:6Z</time></trkpt>
<trkpt lat="48.9668839" lon="3.1859671"><ele>75.73</ele><time>2026-4-28T19:56:9Z</time></trkpt>
<trkpt lat="48.9666744" lon="3.1859836"><ele>74.46</ele><time>2026-4-28T19:56:12Z</time></trkpt>
<trkpt lat="48.9664741" lon="3.1860045"><ele>72.73</ele><time>2026-4-28T19:56:15Z</time></trkpt>
<trkpt lat="48.9662777" lon="3.1859753"><ele>72.42</ele><time>2026-4-28T19:56:18Z</time></trkpt>
<trkpt lat="48.9660701" lon="3.1859551"><ele>73.12</ele><time>2026-4-28T19:56:21Z</time></trkpt>
<trkpt lat="48.9658764" lon="3.1858974"><ele>70.56</ele><time>2026-4-28T19:56:24Z</time></trkpt>
<trkpt lat="48.9656985" lon="3.1857710"><ele>68.32</ele><time>2026-4-28T19:56:27Z</time></trkpt>
<trkpt lat="48.9654906" lon="3.1857460"><ele>66.86</ele><time>2026-4-28T19:56:30Z</time></trkpt>
<trkpt lat="48.9652704" lon="3.1858231"><ele>64.39</ele><time>2026-4-28T19:56:33Z</time></trkpt>
<trkpt lat="48.9650523" lon="3.1857679"><ele>61.91</ele><time>2026-4-28T19:56:36Z</time></trkpt>
<trkpt lat="48.9648698" lon="3.1857598"><ele>63.53</ele><time>2026-4-28T19:56:39Z</time></trkpt>
<trkpt lat="48.9646720" lon="3.1856896"><ele>63.06</ele><time>2026-4-28T19:56:42Z</time></trkpt>
<trkpt lat="48.9644658" lon="3.1856561"><ele>58.92</ele><time>2026-4-28T19:56:45Z</time></trkpt>
<trkpt lat="48.9642527" lon="3.1856354"><ele>57.77</ele><time>2026-4-28T19:56:48Z</time></trkpt>
<trkpt lat="48.9640744" lon="3.1855845"><ele>56.14</ele><time>2026-4-28T19:56:51Z</time></trkpt>
<trkpt lat="48.9638631" lon="3.1855489"><ele>55.34</ele><time>2026-4-28T19:56:54Z</time></trkpt>
<trkpt lat="48.9636787" lon="3.1854977"><ele>56.54</ele><time>2026-4-28T19:56:57Z</time></trkpt>
<trkpt lat="48.9634906" lon="3.1853878"><ele>58.86</ele><time>2026-4-28T19:57:0Z</time></trkpt>
<trkpt lat="48.9633163" lon="3.1852954"><ele>57.93</ele><time>2026-4-28T19:57:3Z</time></trkpt>
<trkpt lat="48.9631198" lon="3.1852141"><ele>57.59</ele><time>2026-4-28T19:57:6Z</time></trkpt>
<trkpt lat="48.9629380" lon="3.1851287"><ele>56.97</ele><time>2026-4-28T19:57:9Z</time></trkpt>
<trkpt lat="48.9627485" lon="3.1850448"><ele>56.89</ele><time>2026-4-28T19:57:12Z</time></trkpt>
<trkpt lat="48.9625607" lon="3.1849959"><ele>56.47</ele><time>2026-4-28T19:57:15Z</time></trkpt>
<trkpt lat="48.9625229" lon="3.1852729"><ele>55.20</ele><time>2026-4-28T19:57:18Z</time></trkpt>
<trkpt lat="48.9624863" lon="3.1855798"><ele>55.01</ele><time>2026-4-28T19:57:21Z</time></trkpt>
<trkpt lat="48.9623712" lon="3.1857909"><ele>55.41</ele><time>2026-4-28T19:57:24Z</time></trkpt>
<trkpt lat="48.9621942" lon="3.1856993"><ele>54.52</ele><time>2026-4-28T19:57:27Z</time></trkpt>
<trkpt lat="48.9620220" lon="3.1856137"><ele>55.34</ele><time>2026-4-28T19:57:30Z</time></trkpt>
<trkpt lat="48.9618392" lon="3.1855231"><ele>55.80</ele><time>2026-4-28T19:57:33Z</time></trkpt>
<trkpt lat="48.9616606" lon="3.1854500"><ele>56.83</ele><time>2026-4-28T19:57:36Z</time></trkpt>
<trkpt lat="48.9614928" lon="3.1853453"><ele>58.47</ele><time>2026-4-28T19:57:39Z</time></trkpt>
<trkpt lat="48.9613058" lon="3.1852499"><ele>56.90</ele><time>2026-4-28T19:57:42Z</time></trkpt>
<trkpt lat="48.9611202" lon="3.1851617"><ele>57.20</ele><time>2026-4-28T19:57:45Z</time></trkpt>
<trkpt lat="48.9609383" lon="3.1850690"><ele>57.23</ele><time>2026-4-28T19:57:48Z</time></trkpt>
<trkpt lat="48.9607596" lon="3.1850143"><ele>57.80</ele><time>2026-4-28T19:57:51Z</time></trkpt>
<trkpt lat="48.9605782" lon="3.1849306"><ele>56.19</ele><time>2026-4-28T19:57:54Z</time></trkpt>
<trkpt lat="48.9603827" lon="3.1848368"><ele>56.85</ele><time>2026-4-28T19:57:57Z</time></trkpt>
<trkpt lat="48.9601865" lon="3.1847828"><ele>56.73</ele><time>2026-4-28T19:58:0Z</time></trkpt>
<trkpt lat="48.9599941" lon="3.1847140"><ele>56.60</ele><time>2026-4-28T19:58:3Z</time></trkpt>
<trkpt lat="48.9597819" lon="3.1846871"><ele>55.90</ele><time>2026-4-28T19:58:6Z</time></trkpt>
<trkpt lat="48.9595911" lon="3.1846989"><ele>54.61</ele><time>2026-4-28T19:58:9Z</time></trkpt>
<trkpt lat="48.9593967" lon="3.1847181"><ele>54.68</ele><time>2026-4-28T19:58:12Z</time></trkpt>
<trkpt lat="48.9592066" lon="3.1846859"><ele>54.16</ele><time>2026-4-28T19:58:15Z</time></trkpt>
<trkpt lat="48.9590269" lon="3.1847067"><ele>54.20</ele><time>2026-4-28T19:58:18Z</time></trkpt>
<trkpt lat="48.9588194" lon="3.1846648"><ele>53.35</ele><time>2026-4-28T19:58:21Z</time></trkpt>
<trkpt lat="48.9586352" lon="3.1845908"><ele>53.09</ele><time>2026-4-28T19:58:24Z</time></trkpt>
<trkpt lat="48.9584391" lon="3.1845570"><ele>55.88</ele><time>2026-4-28T19:58:27Z</time></trkpt>
<trkpt lat="48.9582295" lon="3.1845040"><ele>55.17</ele><time>2026-4-28T19:58:30Z</time></trkpt>
<trkpt lat="48.9580192" lon="3.1844519"><ele>55.97</ele><time>2026-4-28T19:58:33Z</time></trkpt>
<trkpt lat="48.9578358" lon="3.1844247"><ele>56.12</ele><time>2026-4-28T19:58:36Z</time></trkpt>
<trkpt lat="48.9576486" lon="3.1844415"><ele>55.20</ele><time>2026-4-28T19:58:39Z</time></trkpt>
<trkpt lat="48.9574573" lon="3.1844718"><ele>54.51</ele><time>2026-4-28T19:58:42Z</time></trkpt>
<trkpt lat="48.9572618" lon="3.1845282"><ele>55.37</ele><time>2026-4-28T19:58:45Z</time></trkpt>
<trkpt lat="48.9570578" lon="3.1845751"><ele>55.73</ele><time>2026-4-28T19:58:48Z</time></trkpt>
<trkpt lat="48.9568641" lon="3.1846271"><ele>56.03</ele><time>2026-4-28T19:58:51Z</time></trkpt>
<trkpt lat="48.9566593" lon="3.1846630"><ele>56.14</ele><time>2026-4-28T19:58:54Z</time></trkpt>
<trkpt lat="48.9564601" lon="3.1846892"><ele>55.34</ele><time>2026-4-28T19:58:57Z</time></trkpt>
<trkpt lat="48.9562794" lon="3.1847014"><ele>55.77</ele><time>2026-4-28T19:59:0Z</time></trkpt>
<trkpt lat="48.9560835" lon="3.1847205"><ele>55.55</ele><time>2026-4-28T19:59:3Z</time></trkpt>
<trkpt lat="48.9559050" lon="3.1847587"><ele>54.27</ele><time>2026-4-28T19:59:6Z</time></trkpt>
<trkpt lat="48.9556890" lon="3.1847958"><ele>54.21</ele><time>2026-4-28T19:59:9Z</time></trkpt>
<trkpt lat="48.9554990" lon="3.1848559"><ele>56.31</ele><time>2026-4-28T19:59:12Z</time></trkpt>
<trkpt lat="48.9553273" lon="3.1849815"><ele>55.38</ele><time>2026-4-28T19:59:15Z</time></trkpt>
<trkpt lat="48.9551532" lon="3.1851013"><ele>52.29</ele><time>2026-4-28T19:59:18Z</time></trkpt>
<trkpt lat="48.9549694" lon="3.1852275"><ele>48.80</ele><time>2026-4-28T19:59:21Z</time></trkpt>
<trkpt lat="48.9548181" lon="3.1853903"><ele>51.45</ele><time>2026-4-28T19:59:24Z</time></trkpt>
<trkpt lat="48.9546981" lon="3.1856303"><ele>57.75</ele><time>2026-4-28T19:59:27Z</time></trkpt>
<trkpt lat="48.9545588" lon="3.1858238"><ele>58.40</ele><time>2026-4-28T19:59:30Z</time></trkpt>
<trkpt lat="48.9543778" lon="3.1859894"><ele>57.66</ele><time>2026-4-28T19:59:33Z</time></trkpt>
<trkpt lat="48.9542267" lon="3.1861885"><ele>57.85</ele><time>2026-4-28T19:59:36Z</time></trkpt>
<trkpt lat="48.9540804" lon="3.1864019"><ele>58.12</ele><time>2026-4-28T19:59:39Z</time></trkpt>
<trkpt lat="48.9539259" lon="3.1866103"><ele>55.70</ele><time>2026-4-28T19:59:42Z</time></trkpt>
<trkpt lat="48.9538287" lon="3.1868667"><ele>53.16</ele><time>2026-4-28T19:59:45Z</time></trkpt>
<trkpt lat="48.9536670" lon="3.1870608"><ele>53.95</ele><time>2026-4-28T19:59:48Z</time></trkpt>
<trkpt lat="48.9535123" lon="3.1872152"><ele>53.83</ele><time>2026-4-28T19:59:51Z</time></trkpt>
<trkpt lat="48.9533665" lon="3.1874052"><ele>56.82</ele><time>2026-4-28T19:59:54Z</time></trkpt>
<trkpt lat="48.9532648" lon="3.1876626"><ele>57.36</ele><time>2026-4-28T19:59:57Z</time></trkpt>
<trkpt lat="48.9531456" lon="3.1879396"><ele>56.45</ele><time>2026-4-28T20:0:0Z</time></trkpt>
<trkpt lat="48.9530289" lon="3.1882001"><ele>55.43</ele><time>2026-4-28T20:0:3Z</time></trkpt>
<trkpt lat="48.9529283" lon="3.1884466"><ele>56.44</ele><time>2026-4-28T20:0:6Z</time></trkpt>
<trkpt lat="48.9528381" lon="3.1886911"><ele>56.36</ele><time>2026-4-28T20:0:9Z</time></trkpt>
<trkpt lat="48.9527563" lon="3.1889436"><ele>59.53</ele><time>2026-4-28T20:0:12Z</time></trkpt>
<trkpt lat="48.9526968" lon="3.1892170"><ele>58.32</ele><time>2026-4-28T20:0:15Z</time></trkpt>
<trkpt lat="48.9526045" lon="3.1894935"><ele>56.97</ele><time>2026-4-28T20:0:18Z</time></trkpt>
<trkpt lat="48.9525257" lon="3.1897517"><ele>55.57</ele><time>2026-4-28T20:0:21Z</time></trkpt>
<trkpt lat="48.9524429" lon="3.1900068"><ele>56.89</ele><time>2026-4-28T20:0:24Z</time></trkpt>
<trkpt lat="48.9523744" lon="3.1902989"><ele>58.65</ele><time>2026-4-28T20:0:27Z</time></trkpt>
<trkpt lat="48.9523304" lon="3.1905938"><ele>61.83</ele><time>2026-4-28T20:0:30Z</time></trkpt>
<trkpt lat="48.9522361" lon="3.1908660"><ele>63.25</ele><time>2026-4-28T20:0:33Z</time></trkpt>
<trkpt lat="48.9522190" lon="3.1911843"><ele>61.42</ele><time>2026-4-28T20:0:36Z</time></trkpt>
<trkpt lat="48.9521803" lon="3.1914644"><ele>63.48</ele><time>2026-4-28T20:0:39Z</time></trkpt>
<trkpt lat="48.9521605" lon="3.1917809"><ele>62.00</ele><time>2026-4-28T20:0:42Z</time></trkpt>
<trkpt lat="48.9521583" lon="3.1920590"><ele>61.35</ele><time>2026-4-28T20:0:45Z</time></trkpt>
<trkpt lat="48.9521518" lon="3.1924115"><ele>59.88</ele><time>2026-4-28T20:0:48Z</time></trkpt>
<trkpt lat="48.9521349" lon="3.1927043"><ele>57.04</ele><time>2026-4-28T20:0:51Z</time></trkpt>
<trkpt lat="48.9521348" lon="3.1929853"><ele>56.20</ele><time>2026-4-28T20:0:54Z</time></trkpt>
<trkpt lat="48.9521748" lon="3.1932674"><ele>56.49</ele><time>2026-4-28T20:0:57Z</time></trkpt>
<trkpt lat="48.9522192" lon="3.1935528"><ele>55.86</ele><time>2026-4-28T20:1:0Z</time></trkpt>
<trkpt lat="48.9522902" lon="3.1938353"><ele>55.22</ele><time>2026-4-28T20:1:3Z</time></trkpt>
<trkpt lat="48.9523658" lon="3.1941048"><ele>54.44</ele><time>2026-4-28T20:1:6Z</time></trkpt>
<trkpt lat="48.9524641" lon="3.1943652"><ele>54.84</ele><time>2026-4-28T20:1:9Z</time></trkpt>
<trkpt lat="48.9525947" lon="3.1946040"><ele>54.76</ele><time>2026-4-28T20:1:12Z</time></trkpt>
<trkpt lat="48.9527237" lon="3.1948498"><ele>53.75</ele><time>2026-4-28T20:1:15Z</time></trkpt>
<trkpt lat="48.9528642" lon="3.1950758"><ele>54.27</ele><time>2026-4-28T20:1:18Z</time></trkpt>
<trkpt lat="48.9529626" lon="3.1953281"><ele>53.91</ele><time>2026-4-28T20:1:21Z</time></trkpt>
<trkpt lat="48.9530590" lon="3.1956066"><ele>55.22</ele><time>2026-4-28T20:1:24Z</time></trkpt>
<trkpt lat="48.9531963" lon="3.1958632"><ele>53.31</ele><time>2026-4-28T20:1:27Z</time></trkpt>
<trkpt lat="48.9533555" lon="3.1960135"><ele>52.12</ele><time>2026-4-28T20:1:30Z</time></trkpt>
<trkpt lat="48.9535566" lon="3.1961283"><ele>52.16</ele><time>2026-4-28T20:1:33Z</time></trkpt>
<trkpt lat="48.9537240" lon="3.1962717"><ele>52.88</ele><time>2026-4-28T20:1:36Z</time></trkpt>
<trkpt lat="48.9539012" lon="3.1964463"><ele>53.61</ele><time>2026-4-28T20:1:39Z</time></trkpt>
<trkpt lat="48.9540611" lon="3.1966433"><ele>53.88</ele><time>2026-4-28T20:1:42Z</time></trkpt>
<trkpt lat="48.9541771" lon="3.1968616"><ele>54.40</ele><time>2026-4-28T20:1:45Z</time></trkpt>
<trkpt lat="48.9542906" lon="3.1970920"><ele>53.94</ele><time>2026-4-28T20:1:48Z</time></trkpt>
<trkpt lat="48.9544125" lon="3.1973450"><ele>53.61</ele><time>2026-4-28T20:1:51Z</time></trkpt>
<trkpt lat="48.9545451" lon="3.1976074"><ele>53.63</ele><time>2026-4-28T20:1:54Z</time></trkpt>
<trkpt lat="48.9546859" lon="3.1978305"><ele>54.71</ele><time>2026-4-28T20:1:57Z</time></trkpt>
<trkpt lat="48.9548264" lon="3.1980747"><ele>55.22</ele><time>2026-4-28T20:2:0Z</time></trkpt>
<trkpt lat="48.9549604" lon="3.1983172"><ele>55.17</ele><time>2026-4-28T20:2:3Z</time></trkpt>
<trkpt lat="48.9551251" lon="3.1985484"><ele>54.00</ele><time>2026-4-28T20:2:6Z</time></trkpt>
<trkpt lat="48.9552399" lon="3.1987782"><ele>55.28</ele><time>2026-4-28T20:2:9Z</time></trkpt>
<trkpt lat="48.9553889" lon="3.1989427"><ele>55.05</ele><time>2026-4-28T20:2:12Z</time></trkpt>
<trkpt lat="48.9555226" lon="3.1991395"><ele>55.65</ele><time>2026-4-28T20:2:15Z</time></trkpt>
<trkpt lat="48.9556651" lon="3.1993323"><ele>53.88</ele><time>2026-4-28T20:2:18Z</time></trkpt>
<trkpt lat="48.9558178" lon="3.1995541"><ele>54.31</ele><time>2026-4-28T20:2:21Z</time></trkpt>
<trkpt lat="48.9559527" lon="3.1997462"><ele>55.53</ele><time>2026-4-28T20:2:24Z</time></trkpt>
<trkpt lat="48.9560904" lon="3.1999339"><ele>54.85</ele><time>2026-4-28T20:2:27Z</time></trkpt>
<trkpt lat="48.9562535" lon="3.2001444"><ele>54.32</ele><time>2026-4-28T20:2:30Z</time></trkpt>
<trkpt lat="48.9563913" lon="3.2003245"><ele>53.71</ele><time>2026-4-28T20:2:33Z</time></trkpt>
<trkpt lat="48.9565271" lon="3.2005241"><ele>54.03</ele><time>2026-4-28T20:2:36Z</time></trkpt>
<trkpt lat="48.9566566" lon="3.2007146"><ele>53.81</ele><time>2026-4-28T20:2:39Z</time></trkpt>
<trkpt lat="48.9566771" lon="3.2010046"><ele>53.64</ele><time>2026-4-28T20:2:42Z</time></trkpt>
<trkpt lat="48.9566308" lon="3.2012841"><ele>52.23</ele><time>2026-4-28T20:2:45Z</time></trkpt>
<trkpt lat="48.9565814" lon="3.2015718"><ele>51.51</ele><time>2026-4-28T20:2:48Z</time></trkpt>
<trkpt lat="48.9565244" lon="3.2018415"><ele>51.18</ele><time>2026-4-28T20:2:51Z</time></trkpt>
<trkpt lat="48.9564485" lon="3.2021090"><ele>52.13</ele><time>2026-4-28T20:2:54Z</time></trkpt>
<trkpt lat="48.9563622" lon="3.2024027"><ele>52.90</ele><time>2026-4-28T20:2:57Z</time></trkpt>
<trkpt lat="48.9563000" lon="3.2027385"><ele>53.91</ele><time>2026-4-28T20:3:0Z</time></trkpt>
<trkpt lat="48.9562367" lon="3.2030171"><ele>54.92</ele><time>2026-4-28T20:3:3Z</time></trkpt>
<trkpt lat="48.9561269" lon="3.2032863"><ele>56.18</ele><time>2026-4-28T20:3:6Z</time></trkpt>
<trkpt lat="48.9560494" lon="3.2035377"><ele>56.90</ele><time>2026-4-28T20:3:9Z</time></trkpt>
<trkpt lat="48.9560134" lon="3.2038319"><ele>55.94</ele><time>2026-4-28T20:3:12Z</time></trkpt>
<trkpt lat="48.9560304" lon="3.2041076"><ele>58.16</ele><time>2026-4-28T20:3:15Z</time></trkpt>
<trkpt lat="48.9560633" lon="3.2044145"><ele>59.12</ele><time>2026-4-28T20:3:18Z</time></trkpt>
<trkpt lat="48.9561023" lon="3.2047036"><ele>61.60</ele><time>2026-4-28T20:3:21Z</time></trkpt>
<trkpt lat="48.9562108" lon="3.2049336"><ele>57.76</ele><time>2026-4-28T20:3:24Z</time></trkpt>
<trkpt lat="48.9563925" lon="3.2050305"><ele>57.61</ele><time>2026-4-28T20:3:27Z</time></trkpt>
<trkpt lat="48.9565551" lon="3.2051494"><ele>58.57</ele><time>2026-4-28T20:3:30Z</time></trkpt>
<trkpt lat="48.9567333" lon="3.2052778"><ele>58.64</ele><time>2026-4-28T20:3:33Z</time></trkpt>
<trkpt lat="48.9566698" lon="3.2055434"><ele>62.14</ele><time>2026-4-28T20:3:36Z</time></trkpt>
<trkpt lat="48.9566011" lon="3.2058242"><ele>64.11</ele><time>2026-4-28T20:3:39Z</time></trkpt>
<trkpt lat="48.9565326" lon="3.2060915"><ele>69.47</ele><time>2026-4-28T20:3:42Z</time></trkpt>
<trkpt lat="48.9564508" lon="3.2063620"><ele>71.44</ele><time>2026-4-28T20:3:45Z</time></trkpt>
<trkpt lat="48.9563592" lon="3.2066062"><ele>71.69</ele><time>2026-4-28T20:3:48Z</time></trkpt>
<trkpt lat="48.9562827" lon="3.2068552"><ele>74.91</ele><time>2026-4-28T20:3:51Z</time></trkpt>
<trkpt lat="48.9561952" lon="3.2071121"><ele>78.83</ele><time>2026-4-28T20:3:54Z</time></trkpt>
<trkpt lat="48.9560882" lon="3.2073475"><ele>81.58</ele><time>2026-4-28T20:3:57Z</time></trkpt>
<trkpt lat="48.9559703" lon="3.2075573"><ele>90.30</ele><time>2026-4-28T20:4:0Z</time></trkpt>
<trkpt lat="48.9558312" lon="3.2077631"><ele>91.13</ele><time>2026-4-28T20:4:3Z</time></trkpt>
<trkpt lat="48.9556901" lon="3.2079434"><ele>91.33</ele><time>2026-4-28T20:4:6Z</time></trkpt>
<trkpt lat="48.9555240" lon="3.2080843"><ele>101.42</ele><time>2026-4-28T20:4:9Z</time></trkpt>
<trkpt lat="48.9553587" lon="3.2081931"><ele>104.34</ele><time>2026-4-28T20:4:12Z</time></trkpt>
<trkpt lat="48.9551867" lon="3.2081064"><ele>105.36</ele><time>2026-4-28T20:4:15Z</time></trkpt>
<trkpt lat="48.9550277" lon="3.2079626"><ele>107.33</ele><time>2026-4-28T20:4:18Z</time></trkpt>
<trkpt lat="48.9548635" lon="3.2077831"><ele>110.95</ele><time>2026-4-28T20:4:21Z</time></trkpt>
<trkpt lat="48.9546651" lon="3.2078128"><ele>109.10</ele><time>2026-4-28T20:4:24Z</time></trkpt>
<trkpt lat="48.9544701" lon="3.2078571"><ele>108.55</ele><time>2026-4-28T20:4:27Z</time></trkpt>
<trkpt lat="48.9542910" lon="3.2079061"><ele>107.11</ele><time>2026-4-28T20:4:30Z</time></trkpt>
<trkpt lat="48.9541328" lon="3.2077582"><ele>108.04</ele><time>2026-4-28T20:4:33Z</time></trkpt>
<trkpt lat="48.9539806" lon="3.2075415"><ele>108.61</ele><time>2026-4-28T20:4:36Z</time></trkpt>
<trkpt lat="48.9538280" lon="3.2073593"><ele>111.23</ele><time>2026-4-28T20:4:39Z</time></trkpt>
<trkpt lat="48.9536775" lon="3.2071755"><ele>112.05</ele><time>2026-4-28T20:4:42Z</time></trkpt>
<trkpt lat="48.9535328" lon="3.2070070"><ele>114.33</ele><time>2026-4-28T20:4:45Z</time></trkpt>
<trkpt lat="48.9533767" lon="3.2068470"><ele>116.06</ele><time>2026-4-28T20:4:48Z</time></trkpt>
<trkpt lat="48.9532233" lon="3.2066739"><ele>117.25</ele><time>2026-4-28T20:4:51Z</time></trkpt>
<trkpt lat="48.9530584" lon="3.2064742"><ele>116.82</ele><time>2026-4-28T20:4:54Z</time></trkpt>
<trkpt lat="48.9529102" lon="3.2063117"><ele>119.53</ele><time>2026-4-28T20:4:57Z</time></trkpt>
<trkpt lat="48.9527425" lon="3.2062060"><ele>121.80</ele><time>2026-4-28T20:5:0Z</time></trkpt>
<trkpt lat="48.9526633" lon="3.2064802"><ele>123.57</ele><time>2026-4-28T20:5:3Z</time></trkpt>
<trkpt lat="48.9525253" lon="3.2066886"><ele>124.32</ele><time>2026-4-28T20:5:6Z</time></trkpt>
<trkpt lat="48.9523908" lon="3.2069018"><ele>126.89</ele><time>2026-4-28T20:5:9Z</time></trkpt>
<trkpt lat="48.9522286" lon="3.2067658"><ele>133.08</ele><time>2026-4-28T20:5:12Z</time></trkpt>
<trkpt lat="48.9522691" lon="3.2070718"><ele>137.23</ele><time>2026-4-28T20:5:15Z</time></trkpt>
<trkpt lat="48.9521454" lon="3.2072743"><ele>136.84</ele><time>2026-4-28T20:5:18Z</time></trkpt>
<trkpt lat="48.9520051" lon="3.2074707"><ele>137.85</ele><time>2026-4-28T20:5:21Z</time></trkpt>
<trkpt lat="48.9518552" lon="3.2076897"><ele>138.26</ele><time>2026-4-28T20:5:24Z</time></trkpt>
<trkpt lat="48.9517109" lon="3.2078885"><ele>144.32</ele><time>2026-4-28T20:5:27Z</time></trkpt>
<trkpt lat="48.9515601" lon="3.2080913"><ele>145.88</ele><time>2026-4-28T20:5:30Z</time></trkpt>
<trkpt lat="48.9513855" lon="3.2081641"><ele>144.67</ele><time>2026-4-28T20:5:33Z</time></trkpt>
<trkpt lat="48.9511774" lon="3.2080597"><ele>142.42</ele><time>2026-4-28T20:5:36Z</time></trkpt>
<trkpt lat="48.9509589" lon="3.2080090"><ele>143.89</ele><time>2026-4-28T20:5:39Z</time></trkpt>
<trkpt lat="48.9507636" lon="3.2080063"><ele>144.27</ele><time>2026-4-28T20:5:42Z</time></trkpt>
<trkpt lat="48.9505639" lon="3.2079866"><ele>144.97</ele><time>2026-4-28T20:5:45Z</time></trkpt>
<trkpt lat="48.9503729" lon="3.2080040"><ele>147.38</ele><time>2026-4-28T20:5:48Z</time></trkpt>
<trkpt lat="48.9501847" lon="3.2080330"><ele>150.44</ele><time>2026-4-28T20:5:51Z</time></trkpt>
<trkpt lat="48.9499749" lon="3.2080256"><ele>153.78</ele><time>2026-4-28T20:5:54Z</time></trkpt>
<trkpt lat="48.9497733" lon="3.2080350"><ele>155.31</ele><time>2026-4-28T20:5:57Z</time></trkpt>
<trkpt lat="48.9495760" lon="3.2080306"><ele>154.88</ele><time>2026-4-28T20:6:0Z</time></trkpt>
<trkpt lat="48.9493755" lon="3.2080186"><ele>155.35</ele><time>2026-4-28T20:6:3Z</time></trkpt>
<trkpt lat="48.9491694" lon="3.2079961"><ele>155.50</ele><time>2026-4-28T20:6:6Z</time></trkpt>
<trkpt lat="48.9490822" lon="3.2082372"><ele>154.90</ele><time>2026-4-28T20:6:9Z</time></trkpt>
<trkpt lat="48.9491535" lon="3.2084931"><ele>154.28</ele><time>2026-4-28T20:6:12Z</time></trkpt>
<trkpt lat="48.9492263" lon="3.2087466"><ele>153.83</ele><time>2026-4-28T20:6:15Z</time></trkpt>
<trkpt lat="48.9492779" lon="3.2090305"><ele>153.10</ele><time>2026-4-28T20:6:18Z</time></trkpt>
<trkpt lat="48.9493100" lon="3.2093161"><ele>152.64</ele><time>2026-4-28T20:6:21Z</time></trkpt>
<trkpt lat="48.9493352" lon="3.2095884"><ele>151.97</ele><time>2026-4-28T20:6:24Z</time></trkpt>
<trkpt lat="48.9493746" lon="3.2098779"><ele>150.41</ele><time>2026-4-28T20:6:27Z</time></trkpt>
<trkpt lat="48.9494162" lon="3.2101848"><ele>150.25</ele><time>2026-4-28T20:6:30Z</time></trkpt>
<trkpt lat="48.9494528" lon="3.2104736"><ele>148.36</ele><time>2026-4-28T20:6:33Z</time></trkpt>
<trkpt lat="48.9494802" lon="3.2107534"><ele>147.39</ele><time>2026-4-28T20:6:36Z</time></trkpt>
<trkpt lat="48.9494991" lon="3.2110324"><ele>147.50</ele><time>2026-4-28T20:6:39Z</time></trkpt>
<trkpt lat="48.9495215" lon="3.2113222"><ele>146.45</ele><time>2026-4-28T20:6:42Z</time></trkpt>
<trkpt lat="48.9495206" lon="3.2116288"><ele>145.46</ele><time>2026-4-28T20:6:45Z</time></trkpt>
<trkpt lat="48.9495256" lon="3.2119056"><ele>143.19</ele><time>2026-4-28T20:6:48Z</time></trkpt>
<trkpt lat="48.9495866" lon="3.2121783"><ele>141.96</ele><time>2026-4-28T20:6:51Z</time></trkpt>
<trkpt lat="48.9496805" lon="3.2124405"><ele>139.93</ele><time>2026-4-28T20:6:54Z</time></trkpt>
<trkpt lat="48.9497907" lon="3.2126964"><ele>138.17</ele><time>2026-4-28T20:6:57Z</time></trkpt>
<trkpt lat="48.9498985" lon="3.2129189"><ele>135.96</ele><time>2026-4-28T20:7:0Z</time></trkpt>
<trkpt lat="48.9499832" lon="3.2131656"><ele>133.93</ele><time>2026-4-28T20:7:3Z</time></trkpt>
<trkpt lat="48.9500967" lon="3.2134185"><ele>132.08</ele><time>2026-4-28T20:7:6Z</time></trkpt>
<trkpt lat="48.9502087" lon="3.2136584"><ele>131.41</ele><time>2026-4-28T20:7:9Z</time></trkpt>
<trkpt lat="48.9503168" lon="3.2138813"><ele>130.35</ele><time>2026-4-28T20:7:12Z</time></trkpt>
<trkpt lat="48.9504345" lon="3.2141097"><ele>129.85</ele><time>2026-4-28T20:7:15Z</time></trkpt>
<trkpt lat="48.9505458" lon="3.2143531"><ele>128.62</ele><time>2026-4-28T20:7:18Z</time></trkpt>
<trkpt lat="48.9506312" lon="3.2146204"><ele>128.17</ele><time>2026-4-28T20:7:21Z</time></trkpt>
<trkpt lat="48.9507340" lon="3.2149193"><ele>124.05</ele><time>2026-4-28T20:7:24Z</time></trkpt>
<trkpt lat="48.9508309" lon="3.2151887"><ele>122.22</ele><time>2026-4-28T20:7:27Z</time></trkpt>
<trkpt lat="48.9509259" lon="3.2154688"><ele>119.62</ele><time>2026-4-28T20:7:30Z</time></trkpt>
<trkpt lat="48.9510607" lon="3.2157223"><ele>115.09</ele><time>2026-4-28T20:7:33Z</time></trkpt>
<trkpt lat="48.9512303" lon="3.2159947"><ele>113.70</ele><time>2026-4-28T20:7:36Z</time></trkpt>
<trkpt lat="48.9513395" lon="3.2162421"><ele>113.65</ele><time>2026-4-28T20:7:39Z</time></trkpt>
<trkpt lat="48.9512049" lon="3.2164355"><ele>113.65</ele><time>2026-4-28T20:7:42Z</time></trkpt>
<trkpt lat="48.9510558" lon="3.2166269"><ele>113.72</ele><time>2026-4-28T20:7:45Z</time></trkpt>
<trkpt lat="48.9509103" lon="3.2168376"><ele>113.92</ele><time>2026-4-28T20:7:48Z</time></trkpt>
<trkpt lat="48.9507846" lon="3.2170531"><ele>114.32</ele><time>2026-4-28T20:7:51Z</time></trkpt>
<trkpt lat="48.9506746" lon="3.2172836"><ele>113.80</ele><time>2026-4-28T20:7:54Z</time></trkpt>
<trkpt lat="48.9505749" lon="3.2175263"><ele>114.19</ele><time>2026-4-28T20:7:57Z</time></trkpt>
<trkpt lat="48.9504718" lon="3.2178006"><ele>115.91</ele><time>2026-4-28T20:8:0Z</time></trkpt>
<trkpt lat="48.9503811" lon="3.2180506"><ele>116.81</ele><time>2026-4-28T20:8:3Z</time></trkpt>
<trkpt lat="48.9502924" lon="3.2183297"><ele>116.06</ele><time>2026-4-28T20:8:6Z</time></trkpt>
<trkpt lat="48.9502056" lon="3.2185925"><ele>114.62</ele><time>2026-4-28T20:8:9Z</time></trkpt>
<trkpt lat="48.9501086" lon="3.2189046"><ele>110.03</ele><time>2026-4-28T20:8:12Z</time></trkpt>
<trkpt lat="48.9500160" lon="3.2191603"><ele>108.43</ele><time>2026-4-28T20:8:15Z</time></trkpt>
<trkpt lat="48.9498753" lon="3.2194364"><ele>109.00</ele><time>2026-4-28T20:8:18Z</time></trkpt>
<trkpt lat="48.9497003" lon="3.2196684"><ele>108.44</ele><time>2026-4-28T20:8:21Z</time></trkpt>
<trkpt lat="48.9495960" lon="3.2199522"><ele>110.14</ele><time>2026-4-28T20:8:24Z</time></trkpt>
<trkpt lat="48.9496496" lon="3.2202239"><ele>112.78</ele><time>2026-4-28T20:8:27Z</time></trkpt>
<trkpt lat="48.9498117" lon="3.2203514"><ele>113.48</ele><time>2026-4-28T20:8:30Z</time></trkpt>
<trkpt lat="48.9499719" lon="3.2204860"><ele>113.96</ele><time>2026-4-28T20:8:33Z</time></trkpt>
<trkpt lat="48.9501480" lon="3.2206181"><ele>114.23</ele><time>2026-4-28T20:8:36Z</time></trkpt>
<trkpt lat="48.9503045" lon="3.2207537"><ele>115.28</ele><time>2026-4-28T20:8:39Z</time></trkpt>
<trkpt lat="48.9504654" lon="3.2208937"><ele>116.24</ele><time>2026-4-28T20:8:42Z</time></trkpt>
<trkpt lat="48.9506167" lon="3.2206741"><ele>113.94</ele><time>2026-4-28T20:8:45Z</time></trkpt>
<trkpt lat="48.9507483" lon="3.2204078"><ele>112.05</ele><time>2026-4-28T20:8:48Z</time></trkpt>
<trkpt lat="48.9509426" lon="3.2203547"><ele>110.54</ele><time>2026-4-28T20:8:51Z</time></trkpt>
<trkpt lat="48.9511561" lon="3.2203542"><ele>108.64</ele><time>2026-4-28T20:8:54Z</time></trkpt>
<trkpt lat="48.9513759" lon="3.2203400"><ele>106.67</ele><time>2026-4-28T20:8:57Z</time></trkpt>
<trkpt lat="48.9515491" lon="3.2202627"><ele>105.41</ele><time>2026-4-28T20:9:0Z</time></trkpt>
<trkpt lat="48.9517187" lon="3.2201534"><ele>103.83</ele><time>2026-4-28T20:9:3Z</time></trkpt>
<trkpt lat="48.9519075" lon="3.2200021"><ele>101.83</ele><time>2026-4-28T20:9:6Z</time></trkpt>
<trkpt lat="48.9521226" lon="3.2199568"><ele>100.63</ele><time>2026-4-28T20:9:9Z</time></trkpt>
<trkpt lat="48.9522998" lon="3.2201021"><ele>100.34</ele><time>2026-4-28T20:9:12Z</time></trkpt>
<trkpt lat="48.9524924" lon="3.2202873"><ele>100.25</ele><time>2026-4-28T20:9:15Z</time></trkpt>
<trkpt lat="48.9526750" lon="3.2202696"><ele>100.57</ele><time>2026-4-28T20:9:18Z</time></trkpt>
<trkpt lat="48.9528297" lon="3.2201133"><ele>102.47</ele><time>2026-4-28T20:9:21Z</time></trkpt>
<trkpt lat="48.9529966" lon="3.2199198"><ele>104.02</ele><time>2026-4-28T20:9:24Z</time></trkpt>
<trkpt lat="48.9531538" lon="3.2197445"><ele>105.42</ele><time>2026-4-28T20:9:27Z</time></trkpt>
<trkpt lat="48.9533176" lon="3.2195770"><ele>108.26</ele><time>2026-4-28T20:9:30Z</time></trkpt>
<trkpt lat="48.9534922" lon="3.2194218"><ele>110.22</ele><time>2026-4-28T20:9:33Z</time></trkpt>
<trkpt lat="48.9536478" lon="3.2192758"><ele>111.17</ele><time>2026-4-28T20:9:36Z</time></trkpt>
<trkpt lat="48.9538028" lon="3.2190874"><ele>112.08</ele><time>2026-4-28T20:9:39Z</time></trkpt>
<trkpt lat="48.9539578" lon="3.2188854"><ele>112.75</ele><time>2026-4-28T20:9:42Z</time></trkpt>
<trkpt lat="48.9540997" lon="3.2186849"><ele>113.17</ele><time>2026-4-28T20:9:45Z</time></trkpt>
<trkpt lat="48.9542250" lon="3.2184675"><ele>112.82</ele><time>2026-4-28T20:9:48Z</time></trkpt>
<trkpt lat="48.9543784" lon="3.2183096"><ele>113.61</ele><time>2026-4-28T20:9:51Z</time></trkpt>
<trkpt lat="48.9544811" lon="3.2185859"><ele>114.16</ele><time>2026-4-28T20:9:54Z</time></trkpt>
<trkpt lat="48.9545785" lon="3.2188244"><ele>116.23</ele><time>2026-4-28T20:9:57Z</time></trkpt>
<trkpt lat="48.9546838" lon="3.2190987"><ele>117.62</ele><time>2026-4-28T20:10:0Z</time></trkpt>
<trkpt lat="48.9547941" lon="3.2193634"><ele>119.05</ele><time>2026-4-28T20:10:3Z</time></trkpt>
<trkpt lat="48.9548954" lon="3.2196172"><ele>122.24</ele><time>2026-4-28T20:10:6Z</time></trkpt>
<trkpt lat="48.9548958" lon="3.2198982"><ele>124.62</ele><time>2026-4-28T20:10:9Z</time></trkpt>
<trkpt lat="48.9547957" lon="3.2201364"><ele>125.61</ele><time>2026-4-28T20:10:12Z</time></trkpt>
<trkpt lat="48.9546502" lon="3.2203360"><ele>126.28</ele><time>2026-4-28T20:10:15Z</time></trkpt>
<trkpt lat="48.9545086" lon="3.2205324"><ele>127.79</ele><time>2026-4-28T20:10:18Z</time></trkpt>
<trkpt lat="48.9543707" lon="3.2207341"><ele>127.71</ele><time>2026-4-28T20:10:21Z</time></trkpt>
<trkpt lat="48.9542307" lon="3.2209559"><ele>127.99</ele><time>2026-4-28T20:10:24Z</time></trkpt>
<trkpt lat="48.9541065" lon="3.2211645"><ele>129.00</ele><time>2026-4-28T20:10:27Z</time></trkpt>
<trkpt lat="48.9539958" lon="3.2214130"><ele>129.51</ele><time>2026-4-28T20:10:30Z</time></trkpt>
<trkpt lat="48.9538932" lon="3.2216897"><ele>129.81</ele><time>2026-4-28T20:10:33Z</time></trkpt>
<trkpt lat="48.9537855" lon="3.2219628"><ele>130.32</ele><time>2026-4-28T20:10:36Z</time></trkpt>
<trkpt lat="48.9536909" lon="3.2222415"><ele>131.18</ele><time>2026-4-28T20:10:39Z</time></trkpt>
<trkpt lat="48.9536006" lon="3.2224944"><ele>132.13</ele><time>2026-4-28T20:10:42Z</time></trkpt>
<trkpt lat="48.9535040" lon="3.2227499"><ele>131.80</ele><time>2026-4-28T20:10:45Z</time></trkpt>
<trkpt lat="48.9534214" lon="3.2230188"><ele>132.39</ele><time>2026-4-28T20:10:48Z</time></trkpt>
<trkpt lat="48.9533363" lon="3.2232719"><ele>132.55</ele><time>2026-4-28T20:10:51Z</time></trkpt>
<trkpt lat="48.9533033" lon="3.2235784"><ele>133.60</ele><time>2026-4-28T20:10:54Z</time></trkpt>
<trkpt lat="48.9534644" lon="3.2237602"><ele>136.00</ele><time>2026-4-28T20:10:57Z</time></trkpt>
<trkpt lat="48.9536268" lon="3.2239156"><ele>138.39</ele><time>2026-4-28T20:11:0Z</time></trkpt>
<trkpt lat="48.9536699" lon="3.2241852"><ele>140.51</ele><time>2026-4-28T20:11:3Z</time></trkpt>
<trkpt lat="48.9536078" lon="3.2244658"><ele>140.30</ele><time>2026-4-28T20:11:6Z</time></trkpt>
<trkpt lat="48.9535623" lon="3.2247511"><ele>141.03</ele><time>2026-4-28T20:11:9Z</time></trkpt>
<trkpt lat="48.9534824" lon="3.2250251"><ele>141.45</ele><time>2026-4-28T20:11:12Z</time></trkpt>
<trkpt lat="48.9533577" lon="3.2252454"><ele>142.08</ele><time>2026-4-28T20:11:15Z</time></trkpt>
<trkpt lat="48.9532196" lon="3.2254348"><ele>145.03</ele><time>2026-4-28T20:11:18Z</time></trkpt>
<trkpt lat="48.9531189" lon="3.2256830"><ele>142.91</ele><time>2026-4-28T20:11:21Z</time></trkpt>
<trkpt lat="48.9530033" lon="3.2259086"><ele>141.69</ele><time>2026-4-28T20:11:24Z</time></trkpt>
<trkpt lat="48.9529179" lon="3.2261585"><ele>146.48</ele><time>2026-4-28T20:11:27Z</time></trkpt>
<trkpt lat="48.9529280" lon="3.2264323"><ele>147.89</ele><time>2026-4-28T20:11:30Z</time></trkpt>
<trkpt lat="48.9527392" lon="3.2264829"><ele>147.61</ele><time>2026-4-28T20:11:33Z</time></trkpt>
<trkpt lat="48.9526294" lon="3.2267031"><ele>144.47</ele><time>2026-4-28T20:11:36Z</time></trkpt>
<trkpt lat="48.9525409" lon="3.2269541"><ele>143.50</ele><time>2026-4-28T20:11:39Z</time></trkpt>
<trkpt lat="48.9524657" lon="3.2272129"><ele>147.15</ele><time>2026-4-28T20:11:42Z</time></trkpt>
<trkpt lat="48.9523526" lon="3.2274318"><ele>145.53</ele><time>2026-4-28T20:11:45Z</time></trkpt>
<trkpt lat="48.9522317" lon="3.2276427"><ele>141.79</ele><time>2026-4-28T20:11:48Z</time></trkpt>
<trkpt lat="48.9521265" lon="3.2278663"><ele>143.37</ele><time>2026-4-28T20:11:51Z</time></trkpt>
<trkpt lat="48.9520507" lon="3.2281171"><ele>145.53</ele><time>2026-4-28T20:11:54Z</time></trkpt>
<trkpt lat="48.9519524" lon="3.2283650"><ele>143.50</ele><time>2026-4-28T20:11:57Z</time></trkpt>
<trkpt lat="48.9518905" lon="3.2286536"><ele>142.99</ele><time>2026-4-28T20:12:0Z</time></trkpt>
<trkpt lat="48.9518726" lon="3.2289547"><ele>140.90</ele><time>2026-4-28T20:12:3Z</time></trkpt>
<trkpt lat="48.9518125" lon="3.2292159"><ele>147.90</ele><time>2026-4-28T20:12:6Z</time></trkpt>
<trkpt lat="48.9517417" lon="3.2294952"><ele>153.19</ele><time>2026-4-28T20:12:9Z</time></trkpt>
<trkpt lat="48.9516795" lon="3.2297939"><ele>153.17</ele><time>2026-4-28T20:12:12Z</time></trkpt>
<trkpt lat="48.9516486" lon="3.2300888"><ele>154.44</ele><time>2026-4-28T20:12:15Z</time></trkpt>
<trkpt lat="48.9516122" lon="3.2303978"><ele>156.47</ele><time>2026-4-28T20:12:18Z</time></trkpt>
<trkpt lat="48.9516043" lon="3.2306834"><ele>154.70</ele><time>2026-4-28T20:12:21Z</time></trkpt>
<trkpt lat="48.9515573" lon="3.2309778"><ele>158.40</ele><time>2026-4-28T20:12:24Z</time></trkpt>
<trkpt lat="48.9515350" lon="3.2312832"><ele>167.15</ele><time>2026-4-28T20:12:27Z</time></trkpt>
<trkpt lat="48.9515146" lon="3.2315630"><ele>166.13</ele><time>2026-4-28T20:12:30Z</time></trkpt>
<trkpt lat="48.9515530" lon="3.2318561"><ele>164.34</ele><time>2026-4-28T20:12:33Z</time></trkpt>
<trkpt lat="48.9517317" lon="3.2317953"><ele>164.54</ele><time>2026-4-28T20:12:36Z</time></trkpt>
<trkpt lat="48.9518802" lon="3.2316143"><ele>165.49</ele><time>2026-4-28T20:12:39Z</time></trkpt>
<trkpt lat="48.9520739" lon="3.2316315"><ele>168.87</ele><time>2026-4-28T20:12:42Z</time></trkpt>
<trkpt lat="48.9522560" lon="3.2317614"><ele>166.24</ele><time>2026-4-28T20:12:45Z</time></trkpt>
<trkpt lat="48.9524499" lon="3.2317489"><ele>166.13</ele><time>2026-4-28T20:12:48Z</time></trkpt>
<trkpt lat="48.9526520" lon="3.2317544"><ele>166.73</ele><time>2026-4-28T20:12:51Z</time></trkpt>
<trkpt lat="48.9528381" lon="3.2317019"><ele>168.01</ele><time>2026-4-28T20:12:54Z</time></trkpt>
<trkpt lat="48.9530350" lon="3.2316839"><ele>171.99</ele><time>2026-4-28T20:12:57Z</time></trkpt>
<trkpt lat="48.9532245" lon="3.2316418"><ele>172.03</ele><time>2026-4-28T20:13:0Z</time></trkpt>
<trkpt lat="48.9534326" lon="3.2316016"><ele>172.46</ele><time>2026-4-28T20:13:3Z</time></trkpt>
<trkpt lat="48.9536329" lon="3.2315017"><ele>172.10</ele><time>2026-4-28T20:13:6Z</time></trkpt>
<trkpt lat="48.9538126" lon="3.2313733"><ele>172.32</ele><time>2026-4-28T20:13:9Z</time></trkpt>
<trkpt lat="48.9539825" lon="3.2312609"><ele>171.91</ele><time>2026-4-28T20:13:12Z</time></trkpt>
<trkpt lat="48.9541821" lon="3.2311652"><ele>167.46</ele><time>2026-4-28T20:13:15Z</time></trkpt>
<trkpt lat="48.9543964" lon="3.2310984"><ele>167.77</ele><time>2026-4-28T20:13:18Z</time></trkpt>
<trkpt lat="48.9545962" lon="3.2310043"><ele>171.60</ele><time>2026-4-28T20:13:21Z</time></trkpt>
<trkpt lat="48.9547894" lon="3.2308952"><ele>167.05</ele><time>2026-4-28T20:13:24Z</time></trkpt>
<trkpt lat="48.9549920" lon="3.2307897"><ele>161.09</ele><time>2026-4-28T20:13:27Z</time></trkpt>
<trkpt lat="48.9552437" lon="3.2307185"><ele>162.82</ele><time>2026-4-28T20:13:30Z</time></trkpt>
<trkpt lat="48.9554351" lon="3.2306824"><ele>166.05</ele><time>2026-4-28T20:13:33Z</time></trkpt>
<trkpt lat="48.9556345" lon="3.2305636"><ele>165.43</ele><time>2026-4-28T20:13:36Z</time></trkpt>
<trkpt lat="48.9558671" lon="3.2304704"><ele>164.75</ele><time>2026-4-28T20:13:39Z</time></trkpt>
<trkpt lat="48.9560867" lon="3.2304119"><ele>163.76</ele><time>2026-4-28T20:13:42Z</time></trkpt>
<trkpt lat="48.9562853" lon="3.2303338"><ele>161.87</ele><time>2026-4-28T20:13:45Z</time></trkpt>
<trkpt lat="48.9564815" lon="3.2302930"><ele>160.71</ele><time>2026-4-28T20:13:48Z</time></trkpt>
<trkpt lat="48.9566898" lon="3.2302731"><ele>158.65</ele><time>2026-4-28T20:13:51Z</time></trkpt>
<trkpt lat="48.9568706" lon="3.2301487"><ele>156.93</ele><time>2026-4-28T20:13:54Z</time></trkpt>
<trkpt lat="48.9570645" lon="3.2299738"><ele>154.63</ele><time>2026-4-28T20:13:57Z</time></trkpt>
<trkpt lat="48.9572826" lon="3.2297953"><ele>153.50</ele><time>2026-4-28T20:14:0Z</time></trkpt>
<trkpt lat="48.9574586" lon="3.2296547"><ele>150.50</ele><time>2026-4-28T20:14:3Z</time></trkpt>
<trkpt lat="48.9576871" lon="3.2295148"><ele>148.18</ele><time>2026-4-28T20:14:6Z</time></trkpt>
<trkpt lat="48.9579427" lon="3.2294166"><ele>142.58</ele><time>2026-4-28T20:14:9Z</time></trkpt>
<trkpt lat="48.9581195" lon="3.2293067"><ele>141.21</ele><time>2026-4-28T20:14:12Z</time></trkpt>
<trkpt lat="48.9582891" lon="3.2291932"><ele>138.76</ele><time>2026-4-28T20:14:15Z</time></trkpt>
<trkpt lat="48.9584522" lon="3.2290762"><ele>137.00</ele><time>2026-4-28T20:14:18Z</time></trkpt>
<trkpt lat="48.9586696" lon="3.2289395"><ele>134.86</ele><time>2026-4-28T20:14:21Z</time></trkpt>
<trkpt lat="48.9588813" lon="3.2289129"><ele>132.11</ele><time>2026-4-28T20:14:24Z</time></trkpt>
<trkpt lat="48.9590766" lon="3.2288057"><ele>130.46</ele><time>2026-4-28T20:14:27Z</time></trkpt>
<trkpt lat="48.9592341" lon="3.2286608"><ele>128.84</ele><time>2026-4-28T20:14:30Z</time></trkpt>
<trkpt lat="48.9594506" lon="3.2285289"><ele>127.57</ele><time>2026-4-28T20:14:33Z</time></trkpt>
<trkpt lat="48.9596268" lon="3.2284109"><ele>126.55</ele><time>2026-4-28T20:14:36Z</time></trkpt>
<trkpt lat="48.9598391" lon="3.2282546"><ele>124.99</ele><time>2026-4-28T20:14:39Z</time></trkpt>
<trkpt lat="48.9600445" lon="3.2280751"><ele>123.51</ele><time>2026-4-28T20:14:42Z</time></trkpt>
<trkpt lat="48.9602447" lon="3.2280408"><ele>112.42</ele><time>2026-4-28T20:14:45Z</time></trkpt>
<trkpt lat="48.9604441" lon="3.2279235"><ele>118.99</ele><time>2026-4-28T20:14:48Z</time></trkpt>
<trkpt lat="48.9606584" lon="3.2278104"><ele>116.07</ele><time>2026-4-28T20:14:51Z</time></trkpt>
<trkpt lat="48.9608773" lon="3.2276479"><ele>112.85</ele><time>2026-4-28T20:14:54Z</time></trkpt>
<trkpt lat="48.9611112" lon="3.2274495"><ele>109.99</ele><time>2026-4-28T20:14:57Z</time></trkpt>
<trkpt lat="48.9612813" lon="3.2273229"><ele>108.08</ele><time>2026-4-28T20:15:0Z</time></trkpt>
<trkpt lat="48.9614500" lon="3.2272143"><ele>105.39</ele><time>2026-4-28T20:15:3Z</time></trkpt>
<trkpt lat="48.9616295" lon="3.2271365"><ele>103.73</ele><time>2026-4-28T20:15:6Z</time></trkpt>
<trkpt lat="48.9618211" lon="3.2271039"><ele>102.05</ele><time>2026-4-28T20:15:9Z</time></trkpt>
<trkpt lat="48.9620213" lon="3.2270586"><ele>100.05</ele><time>2026-4-28T20:15:12Z</time></trkpt>
<trkpt lat="48.9622078" lon="3.2270266"><ele>98.35</ele><time>2026-4-28T20:15:15Z</time></trkpt>
<trkpt lat="48.9623904" lon="3.2269651"><ele>99.86</ele><time>2026-4-28T20:15:18Z</time></trkpt>
<trkpt lat="48.9625956" lon="3.2269501"><ele>97.82</ele><time>2026-4-28T20:15:21Z</time></trkpt>
<trkpt lat="48.9627900" lon="3.2268911"><ele>96.25</ele><time>2026-4-28T20:15:24Z</time></trkpt>
<trkpt lat="48.9629777" lon="3.2268064"><ele>95.13</ele><time>2026-4-28T20:15:27Z</time></trkpt>
<trkpt lat="48.9631867" lon="3.2267100"><ele>93.49</ele><time>2026-4-28T20:15:30Z</time></trkpt>
<trkpt lat="48.9634140" lon="3.2265979"><ele>92.55</ele><time>2026-4-28T20:15:33Z</time></trkpt>
<trkpt lat="48.9635909" lon="3.2265135"><ele>91.62</ele><time>2026-4-28T20:15:36Z</time></trkpt>
<trkpt lat="48.9637683" lon="3.2264345"><ele>91.00</ele><time>2026-4-28T20:15:39Z</time></trkpt>
<trkpt lat="48.9639534" lon="3.2263467"><ele>90.16</ele><time>2026-4-28T20:15:42Z</time></trkpt>
<trkpt lat="48.9641349" lon="3.2262683"><ele>89.11</ele><time>2026-4-28T20:15:45Z</time></trkpt>
<trkpt lat="48.9643063" lon="3.2261785"><ele>88.45</ele><time>2026-4-28T20:15:48Z</time></trkpt>
<trkpt lat="48.9645108" lon="3.2260759"><ele>87.81</ele><time>2026-4-28T20:15:51Z</time></trkpt>
<trkpt lat="48.9645793" lon="3.2263354"><ele>84.44</ele><time>2026-4-28T20:15:54Z</time></trkpt>
<trkpt lat="48.9647007" lon="3.2265480"><ele>88.40</ele><time>2026-4-28T20:15:57Z</time></trkpt>
<trkpt lat="48.9647225" lon="3.2268294"><ele>89.91</ele><time>2026-4-28T20:16:0Z</time></trkpt>
<trkpt lat="48.9647619" lon="3.2271131"><ele>89.84</ele><time>2026-4-28T20:16:3Z</time></trkpt>
<trkpt lat="48.9647961" lon="3.2274354"><ele>89.27</ele><time>2026-4-28T20:16:6Z</time></trkpt>
<trkpt lat="48.9647974" lon="3.2277103"><ele>88.41</ele><time>2026-4-28T20:16:9Z</time></trkpt>
<trkpt lat="48.9647516" lon="3.2280043"><ele>88.78</ele><time>2026-4-28T20:16:12Z</time></trkpt>
<trkpt lat="48.9647110" lon="3.2282914"><ele>89.28</ele><time>2026-4-28T20:16:15Z</time></trkpt>
<trkpt lat="48.9646741" lon="3.2286074"><ele>88.69</ele><time>2026-4-28T20:16:18Z</time></trkpt>
<trkpt lat="48.9646378" lon="3.2289355"><ele>89.70</ele><time>2026-4-28T20:16:21Z</time></trkpt>
<trkpt lat="48.9645898" lon="3.2292038"><ele>88.94</ele><time>2026-4-28T20:16:24Z</time></trkpt>
<trkpt lat="48.9645412" lon="3.2294845"><ele>88.86</ele><time>2026-4-28T20:16:27Z</time></trkpt>
<trkpt lat="48.9644886" lon="3.2297743"><ele>89.33</ele><time>2026-4-28T20:16:30Z</time></trkpt>
<trkpt lat="48.9644356" lon="3.2300734"><ele>89.76</ele><time>2026-4-28T20:16:33Z</time></trkpt>
<trkpt lat="48.9643828" lon="3.2303609"><ele>90.29</ele><time>2026-4-28T20:16:36Z</time></trkpt>
<trkpt lat="48.9643293" lon="3.2306362"><ele>90.56</ele><time>2026-4-28T20:16:39Z</time></trkpt>
<trkpt lat="48.9642789" lon="3.2309496"><ele>91.28</ele><time>2026-4-28T20:16:42Z</time></trkpt>
<trkpt lat="48.9642409" lon="3.2312485"><ele>92.16</ele><time>2026-4-28T20:16:45Z</time></trkpt>
<trkpt lat="48.9641955" lon="3.2315306"><ele>92.04</ele><time>2026-4-28T20:16:48Z</time></trkpt>
<trkpt lat="48.9641455" lon="3.2318175"><ele>93.47</ele><time>2026-4-28T20:16:51Z</time></trkpt>
<trkpt lat="48.9640953" lon="3.2320952"><ele>93.83</ele><time>2026-4-28T20:16:54Z</time></trkpt>
<trkpt lat="48.9640459" lon="3.2323853"><ele>93.39</ele><time>2026-4-28T20:16:57Z</time></trkpt>
<trkpt lat="48.9640096" lon="3.2327034"><ele>93.63</ele><time>2026-4-28T20:17:0Z</time></trkpt>
<trkpt lat="48.9639837" lon="3.2330044"><ele>93.36</ele><time>2026-4-28T20:17:3Z</time></trkpt>
<trkpt lat="48.9639654" lon="3.2332816"><ele>94.14</ele><time>2026-4-28T20:17:6Z</time></trkpt>
<trkpt lat="48.9639380" lon="3.2335647"><ele>95.17</ele><time>2026-4-28T20:17:9Z</time></trkpt>
<trkpt lat="48.9639115" lon="3.2338871"><ele>96.15</ele><time>2026-4-28T20:17:12Z</time></trkpt>
<trkpt lat="48.9639366" lon="3.2342093"><ele>97.22</ele><time>2026-4-28T20:17:15Z</time></trkpt>
<trkpt lat="48.9640012" lon="3.2345031"><ele>97.57</ele><time>2026-4-28T20:17:18Z</time></trkpt>
<trkpt lat="48.9640766" lon="3.2347564"><ele>97.16</ele><time>2026-4-28T20:17:21Z</time></trkpt>
<trkpt lat="48.9641449" lon="3.2350169"><ele>96.17</ele><time>2026-4-28T20:17:24Z</time></trkpt>
<trkpt lat="48.9642203" lon="3.2353156"><ele>94.75</ele><time>2026-4-28T20:17:27Z</time></trkpt>
<trkpt lat="48.9642963" lon="3.2355974"><ele>95.01</ele><time>2026-4-28T20:17:30Z</time></trkpt>
<trkpt lat="48.9643475" lon="3.2358706"><ele>95.01</ele><time>2026-4-28T20:17:33Z</time></trkpt>
<trkpt lat="48.9643976" lon="3.2361352"><ele>93.41</ele><time>2026-4-28T20:17:36Z</time></trkpt>
<trkpt lat="48.9646014" lon="3.2361834"><ele>91.98</ele><time>2026-4-28T20:17:39Z</time></trkpt>
<trkpt lat="48.9647842" lon="3.2361853"><ele>91.19</ele><time>2026-4-28T20:17:42Z</time></trkpt>
<trkpt lat="48.9649796" lon="3.2362132"><ele>90.45</ele><time>2026-4-28T20:17:45Z</time></trkpt>
<trkpt lat="48.9651791" lon="3.2362477"><ele>89.39</ele><time>2026-4-28T20:17:48Z</time></trkpt>
<trkpt lat="48.9653684" lon="3.2362940"><ele>88.26</ele><time>2026-4-28T20:17:51Z</time></trkpt>
<trkpt lat="48.9655569" lon="3.2363460"><ele>87.43</ele><time>2026-4-28T20:17:54Z</time></trkpt>
<trkpt lat="48.9657605" lon="3.2364292"><ele>86.41</ele><time>2026-4-28T20:17:57Z</time></trkpt>
<trkpt lat="48.9659645" lon="3.2365264"><ele>84.94</ele><time>2026-4-28T20:18:0Z</time></trkpt>
<trkpt lat="48.9661645" lon="3.2366786"><ele>83.42</ele><time>2026-4-28T20:18:3Z</time></trkpt>
<trkpt lat="48.9663220" lon="3.2368314"><ele>81.81</ele><time>2026-4-28T20:18:6Z</time></trkpt>
<trkpt lat="48.9665180" lon="3.2369323"><ele>79.24</ele><time>2026-4-28T20:18:9Z</time></trkpt>
<trkpt lat="48.9667204" lon="3.2369371"><ele>77.57</ele><time>2026-4-28T20:18:12Z</time></trkpt>
<trkpt lat="48.9669275" lon="3.2369381"><ele>76.36</ele><time>2026-4-28T20:18:15Z</time></trkpt>
<trkpt lat="48.9671605" lon="3.2369319"><ele>73.71</ele><time>2026-4-28T20:18:18Z</time></trkpt>
<trkpt lat="48.9673814" lon="3.2369963"><ele>71.57</ele><time>2026-4-28T20:18:21Z</time></trkpt>
<trkpt lat="48.9675509" lon="3.2371235"><ele>69.88</ele><time>2026-4-28T20:18:24Z</time></trkpt>
<trkpt lat="48.9677216" lon="3.2372512"><ele>68.17</ele><time>2026-4-28T20:18:27Z</time></trkpt>
<trkpt lat="48.9678776" lon="3.2374339"><ele>67.41</ele><time>2026-4-28T20:18:30Z</time></trkpt>
<trkpt lat="48.9680468" lon="3.2375717"><ele>67.52</ele><time>2026-4-28T20:18:33Z</time></trkpt>
<trkpt lat="48.9682474" lon="3.2377614"><ele>67.53</ele><time>2026-4-28T20:18:36Z</time></trkpt>
<trkpt lat="48.9684244" lon="3.2379202"><ele>67.23</ele><time>2026-4-28T20:18:39Z</time></trkpt>
<trkpt lat="48.9686040" lon="3.2380887"><ele>66.64</ele><time>2026-4-28T20:18:42Z</time></trkpt>
<trkpt lat="48.9687670" lon="3.2382963"><ele>65.62</ele><time>2026-4-28T20:18:45Z</time></trkpt>
<trkpt lat="48.9689460" lon="3.2382572"><ele>64.03</ele><time>2026-4-28T20:18:48Z</time></trkpt>
<trkpt lat="48.9691207" lon="3.2381018"><ele>62.49</ele><time>2026-4-28T20:18:51Z</time></trkpt>
<trkpt lat="48.9692545" lon="3.2378718"><ele>61.60</ele><time>2026-4-28T20:18:54Z</time></trkpt>
<trkpt lat="48.9693937" lon="3.2376697"><ele>61.41</ele><time>2026-4-28T20:18:57Z</time></trkpt>
<trkpt lat="48.9695415" lon="3.2374743"><ele>61.68</ele><time>2026-4-28T20:19:0Z</time></trkpt>
<trkpt lat="48.9697023" lon="3.2373151"><ele>63.32</ele><time>2026-4-28T20:19:3Z</time></trkpt>
<trkpt lat="48.9698857" lon="3.2372899"><ele>63.77</ele><time>2026-4-28T20:19:6Z</time></trkpt>
<trkpt lat="48.9699840" lon="3.2375235"><ele>61.21</ele><time>2026-4-28T20:19:9Z</time></trkpt>
<trkpt lat="48.9699242" lon="3.2377972"><ele>60.12</ele><time>2026-4-28T20:19:12Z</time></trkpt>
<trkpt lat="48.9700289" lon="3.2380387"><ele>59.11</ele><time>2026-4-28T20:19:15Z</time></trkpt>
<trkpt lat="48.9701163" lon="3.2383056"><ele>58.38</ele><time>2026-4-28T20:19:18Z</time></trkpt>
<trkpt lat="48.9702059" lon="3.2385576"><ele>58.83</ele><time>2026-4-28T20:19:21Z</time></trkpt>
<trkpt lat="48.9703655" lon="3.2387247"><ele>60.16</ele><time>2026-4-28T20:19:24Z</time></trkpt>
<trkpt lat="48.9705105" lon="3.2389061"><ele>61.68</ele><time>2026-4-28T20:19:27Z</time></trkpt>
<trkpt lat="48.9706710" lon="3.2390630"><ele>59.97</ele><time>2026-4-28T20:19:30Z</time></trkpt>
<trkpt lat="48.9708078" lon="3.2392549"><ele>58.86</ele><time>2026-4-28T20:19:33Z</time></trkpt>
<trkpt lat="48.9709519" lon="3.2394344"><ele>57.85</ele><time>2026-4-28T20:19:36Z</time></trkpt>
<trkpt lat="48.9711019" lon="3.2396013"><ele>56.98</ele><time>2026-4-28T20:19:39Z</time></trkpt>
<trkpt lat="48.9712571" lon="3.2397762"><ele>57.89</ele><time>2026-4-28T20:19:42Z</time></trkpt>
<trkpt lat="48.9714542" lon="3.2398874"><ele>58.32</ele><time>2026-4-28T20:19:45Z</time></trkpt>
<trkpt lat="48.9716361" lon="3.2398628"><ele>58.49</ele><time>2026-4-28T20:19:48Z</time></trkpt>
<trkpt lat="48.9717628" lon="3.2396622"><ele>58.49</ele><time>2026-4-28T20:19:51Z</time></trkpt>
<trkpt lat="48.9718503" lon="3.2393885"><ele>57.12</ele><time>2026-4-28T20:19:54Z</time></trkpt>
<trkpt lat="48.9719435" lon="3.2391155"><ele>56.33</ele><time>2026-4-28T20:19:57Z</time></trkpt>
<trkpt lat="48.9720437" lon="3.2388333"><ele>56.06</ele><time>2026-4-28T20:20:0Z</time></trkpt>
<trkpt lat="48.9721323" lon="3.2385737"><ele>55.42</ele><time>2026-4-28T20:20:3Z</time></trkpt>
<trkpt lat="48.9722301" lon="3.2382985"><ele>54.42</ele><time>2026-4-28T20:20:6Z</time></trkpt>
<trkpt lat="48.9723289" lon="3.2380263"><ele>54.83</ele><time>2026-4-28T20:20:9Z</time></trkpt>
<trkpt lat="48.9724194" lon="3.2377621"><ele>54.69</ele><time>2026-4-28T20:20:12Z</time></trkpt>
<trkpt lat="48.9725180" lon="3.2374954"><ele>54.02</ele><time>2026-4-28T20:20:15Z</time></trkpt>
<trkpt lat="48.9726151" lon="3.2372307"><ele>54.31</ele><time>2026-4-28T20:20:18Z</time></trkpt>
<trkpt lat="48.9727042" lon="3.2369848"><ele>55.43</ele><time>2026-4-28T20:20:21Z</time></trkpt>
<trkpt lat="48.9727970" lon="3.2367160"><ele>54.22</ele><time>2026-4-28T20:20:24Z</time></trkpt>
<trkpt lat="48.9729338" lon="3.2363477"><ele>54.05</ele><time>2026-4-28T20:20:27Z</time></trkpt>
<trkpt lat="48.9730264" lon="3.2361003"><ele>54.45</ele><time>2026-4-28T20:20:30Z</time></trkpt>
<trkpt lat="48.9731273" lon="3.2358362"><ele>54.29</ele><time>2026-4-28T20:20:33Z</time></trkpt>
<trkpt lat="48.9732191" lon="3.2355828"><ele>54.74</ele><time>2026-4-28T20:20:36Z</time></trkpt>
<trkpt lat="48.9733293" lon="3.2352884"><ele>54.90</ele><time>2026-4-28T20:20:39Z</time></trkpt>
<trkpt lat="48.9734391" lon="3.2349903"><ele>54.99</ele><time>2026-4-28T20:20:42Z</time></trkpt>
<trkpt lat="48.9735410" lon="3.2347117"><ele>54.93</ele><time>2026-4-28T20:20:45Z</time></trkpt>
<trkpt lat="48.9736392" lon="3.2344462"><ele>54.53</ele><time>2026-4-28T20:20:48Z</time></trkpt>
<trkpt lat="48.9737294" lon="3.2341958"><ele>54.45</ele><time>2026-4-28T20:20:51Z</time></trkpt>
<trkpt lat="48.9738317" lon="3.2339180"><ele>54.16</ele><time>2026-4-28T20:20:54Z</time></trkpt>
<trkpt lat="48.9739276" lon="3.2336458"><ele>53.55</ele><time>2026-4-28T20:20:57Z</time></trkpt>
<trkpt lat="48.9740209" lon="3.2333714"><ele>53.31</ele><time>2026-4-28T20:21:0Z</time></trkpt>
<trkpt lat="48.9741405" lon="3.2331077"><ele>53.34</ele><time>2026-4-28T20:21:3Z</time></trkpt>
<trkpt lat="48.9742589" lon="3.2328807"><ele>52.82</ele><time>2026-4-28T20:21:6Z</time></trkpt>
<trkpt lat="48.9743882" lon="3.2326761"><ele>52.37</ele><time>2026-4-28T20:21:9Z</time></trkpt>
<trkpt lat="48.9745232" lon="3.2324631"><ele>51.87</ele><time>2026-4-28T20:21:12Z</time></trkpt>
<trkpt lat="48.9746461" lon="3.2322472"><ele>51.96</ele><time>2026-4-28T20:21:15Z</time></trkpt>
<trkpt lat="48.9747766" lon="3.2320249"><ele>52.71</ele><time>2026-4-28T20:21:18Z</time></trkpt>
<trkpt lat="48.9748811" lon="3.2317968"><ele>53.26</ele><time>2026-4-28T20:21:21Z</time></trkpt>
<trkpt lat="48.9749977" lon="3.2315880"><ele>53.19</ele><time>2026-4-28T20:21:24Z</time></trkpt>
<trkpt lat="48.9751195" lon="3.2313261"><ele>53.82</ele><time>2026-4-28T20:21:27Z</time></trkpt>
<trkpt lat="48.9752148" lon="3.2310834"><ele>54.01</ele><time>2026-4-28T20:21:30Z</time></trkpt>
<trkpt lat="48.9752727" lon="3.2308209"><ele>54.27</ele><time>2026-4-28T20:21:33Z</time></trkpt>
<trkpt lat="48.9753069" lon="3.2305461"><ele>54.52</ele><time>2026-4-28T20:21:36Z</time></trkpt>
<trkpt lat="48.9753308" lon="3.2302361"><ele>55.67</ele><time>2026-4-28T20:21:39Z</time></trkpt>
<trkpt lat="48.9753518" lon="3.2299352"><ele>54.82</ele><time>2026-4-28T20:21:42Z</time></trkpt>
<trkpt lat="48.9753832" lon="3.2295802"><ele>54.77</ele><time>2026-4-28T20:21:45Z</time></trkpt>
<trkpt lat="48.9754134" lon="3.2292786"><ele>54.78</ele><time>2026-4-28T20:21:48Z</time></trkpt>
<trkpt lat="48.9754491" lon="3.2289910"><ele>54.88</ele><time>2026-4-28T20:21:51Z</time></trkpt>
<trkpt lat="48.9754746" lon="3.2287002"><ele>55.29</ele><time>2026-4-28T20:21:54Z</time></trkpt>
<trkpt lat="48.9755078" lon="3.2284268"><ele>55.72</ele><time>2026-4-28T20:21:57Z</time></trkpt>
<trkpt lat="48.9755403" lon="3.2281139"><ele>56.52</ele><time>2026-4-28T20:22:0Z</time></trkpt>
<trkpt lat="48.9755734" lon="3.2278122"><ele>55.72</ele><time>2026-4-28T20:22:3Z</time></trkpt>
<trkpt lat="48.9755959" lon="3.2275082"><ele>55.61</ele><time>2026-4-28T20:22:6Z</time></trkpt>
<trkpt lat="48.9756256" lon="3.2272078"><ele>55.67</ele><time>2026-4-28T20:22:9Z</time></trkpt>
<trkpt lat="48.9756590" lon="3.2269087"><ele>55.86</ele><time>2026-4-28T20:22:12Z</time></trkpt>
<trkpt lat="48.9756864" lon="3.2266280"><ele>56.04</ele><time>2026-4-28T20:22:15Z</time></trkpt>
<trkpt lat="48.9757201" lon="3.2263071"><ele>56.36</ele><time>2026-4-28T20:22:18Z</time></trkpt>
<trkpt lat="48.9757510" lon="3.2260087"><ele>56.54</ele><time>2026-4-28T20:22:21Z</time></trkpt>
<trkpt lat="48.9757844" lon="3.2257006"><ele>56.00</ele><time>2026-4-28T20:22:24Z</time></trkpt>
<trkpt lat="48.9758138" lon="3.2253893"><ele>56.13</ele><time>2026-4-28T20:22:27Z</time></trkpt>
<trkpt lat="48.9758459" lon="3.2250832"><ele>56.89</ele><time>2026-4-28T20:22:30Z</time></trkpt>
<trkpt lat="48.9758762" lon="3.2247729"><ele>56.92</ele><time>2026-4-28T20:22:33Z</time></trkpt>
<trkpt lat="48.9759056" lon="3.2244465"><ele>55.77</ele><time>2026-4-28T20:22:36Z</time></trkpt>
<trkpt lat="48.9759374" lon="3.2241262"><ele>55.50</ele><time>2026-4-28T20:22:39Z</time></trkpt>
<trkpt lat="48.9759678" lon="3.2238222"><ele>55.38</ele><time>2026-4-28T20:22:42Z</time></trkpt>
<trkpt lat="48.9760028" lon="3.2234914"><ele>55.42</ele><time>2026-4-28T20:22:45Z</time></trkpt>
<trkpt lat="48.9760355" lon="3.2231633"><ele>54.98</ele><time>2026-4-28T20:22:48Z</time></trkpt>
<trkpt lat="48.9760672" lon="3.2228566"><ele>55.07</ele><time>2026-4-28T20:22:51Z</time></trkpt>
<trkpt lat="48.9761004" lon="3.2225547"><ele>55.42</ele><time>2026-4-28T20:22:54Z</time></trkpt>
<trkpt lat="48.9761301" lon="3.2222563"><ele>55.42</ele><time>2026-4-28T20:22:57Z</time></trkpt>
<trkpt lat="48.9761557" lon="3.2219569"><ele>54.89</ele><time>2026-4-28T20:23:0Z</time></trkpt>
<trkpt lat="48.9761530" lon="3.2216479"><ele>55.21</ele><time>2026-4-28T20:23:3Z</time></trkpt>
<trkpt lat="48.9761162" lon="3.2213510"><ele>55.59</ele><time>2026-4-28T20:23:6Z</time></trkpt>
<trkpt lat="48.9759163" lon="3.2213461"><ele>56.48</ele><time>2026-4-28T20:23:9Z</time></trkpt>
<trkpt lat="48.9757066" lon="3.2214255"><ele>56.17</ele><time>2026-4-28T20:23:12Z</time></trkpt>
<trkpt lat="48.9755219" lon="3.2215119"><ele>55.94</ele><time>2026-4-28T20:23:15Z</time></trkpt>
<trkpt lat="48.9753365" lon="3.2215469"><ele>56.00</ele><time>2026-4-28T20:23:18Z</time></trkpt>
<trkpt lat="48.9751396" lon="3.2215429"><ele>56.22</ele><time>2026-4-28T20:23:21Z</time></trkpt>
<trkpt lat="48.9749485" lon="3.2214908"><ele>56.61</ele><time>2026-4-28T20:23:24Z</time></trkpt>
<trkpt lat="48.9747661" lon="3.2214046"><ele>57.78</ele><time>2026-4-28T20:23:27Z</time></trkpt>
<trkpt lat="48.9745689" lon="3.2213076"><ele>59.32</ele><time>2026-4-28T20:23:30Z</time></trkpt>
<trkpt lat="48.9743882" lon="3.2212353"><ele>59.22</ele><time>2026-4-28T20:23:33Z</time></trkpt>
<trkpt lat="48.9741939" lon="3.2212080"><ele>59.47</ele><time>2026-4-28T20:23:36Z</time></trkpt>
<trkpt lat="48.9743864" lon="3.2212795"><ele>59.06</ele><time>2026-4-28T20:23:39Z</time></trkpt>
<trkpt lat="48.9745733" lon="3.2213440"><ele>57.76</ele><time>2026-4-28T20:23:42Z</time></trkpt>
<trkpt lat="48.9747484" lon="3.2214280"><ele>56.63</ele><time>2026-4-28T20:23:45Z</time></trkpt>
<trkpt lat="48.9749626" lon="3.2215253"><ele>55.91</ele><time>2026-4-28T20:23:48Z</time></trkpt>
<trkpt lat="48.9751399" lon="3.2215750"><ele>55.46</ele><time>2026-4-28T20:23:51Z</time></trkpt>
<trkpt lat="48.9753599" lon="3.2215833"><ele>55.31</ele><time>2026-4-28T20:23:54Z</time></trkpt>
<trkpt lat="48.9755586" lon="3.2215423"><ele>55.22</ele><time>2026-4-28T20:23:57Z</time></trkpt>
<trkpt lat="48.9757692" lon="3.2214546"><ele>55.16</ele><time>2026-4-28T20:24:0Z</time></trkpt>
<trkpt lat="48.9759575" lon="3.2213704"><ele>55.20</ele><time>2026-4-28T20:24:3Z</time></trkpt>
<trkpt lat="48.9761610" lon="3.2212899"><ele>55.99</ele><time>2026-4-28T20:24:6Z</time></trkpt>
<trkpt lat="48.9763593" lon="3.2212213"><ele>58.64</ele><time>2026-4-28T20:24:9Z</time></trkpt>
<trkpt lat="48.9765475" lon="3.2211308"><ele>60.70</ele><time>2026-4-28T20:24:12Z</time></trkpt>
<trkpt lat="48.9767281" lon="3.2210249"><ele>60.63</ele><time>2026-4-28T20:24:15Z</time></trkpt>
<trkpt lat="48.9769120" lon="3.2209367"><ele>60.61</ele><time>2026-4-28T20:24:18Z</time></trkpt>
<trkpt lat="48.9770694" lon="3.2207928"><ele>58.81</ele><time>2026-4-28T20:24:21Z</time></trkpt>
<trkpt lat="48.9772563" lon="3.2207079"><ele>61.15</ele><time>2026-4-28T20:24:24Z</time></trkpt>
<trkpt lat="48.9774871" lon="3.2207056"><ele>62.86</ele><time>2026-4-28T20:24:27Z</time></trkpt>
<trkpt lat="48.9776836" lon="3.2206411"><ele>63.89</ele><time>2026-4-28T20:24:30Z</time></trkpt>
<trkpt lat="48.9778214" lon="3.2208800"><ele>60.59</ele><time>2026-4-28T20:24:33Z</time></trkpt>
<trkpt lat="48.9780003" lon="3.2210262"><ele>62.41</ele><time>2026-4-28T20:24:36Z</time></trkpt>
<trkpt lat="48.9781850" lon="3.2209873"><ele>62.16</ele><time>2026-4-28T20:24:39Z</time></trkpt>
<trkpt lat="48.9783605" lon="3.2208923"><ele>62.73</ele><time>2026-4-28T20:24:42Z</time></trkpt>
<trkpt lat="48.9781800" lon="3.2209208"><ele>60.62</ele><time>2026-4-28T20:24:45Z</time></trkpt>
<trkpt lat="48.9780101" lon="3.2210312"><ele>65.51</ele><time>2026-4-28T20:24:48Z</time></trkpt>
<trkpt lat="48.9778162" lon="3.2208797"><ele>61.89</ele><time>2026-4-28T20:24:51Z</time></trkpt>
<trkpt lat="48.9775946" lon="3.2208139"><ele>59.47</ele><time>2026-4-28T20:24:54Z</time></trkpt>
<trkpt lat="48.9774118" lon="3.2208360"><ele>58.27</ele><time>2026-4-28T20:24:57Z</time></trkpt>
<trkpt lat="48.9771975" lon="3.2208267"><ele>57.14</ele><time>2026-4-28T20:25:0Z</time></trkpt>
<trkpt lat="48.9770083" lon="3.2207318"><ele>59.77</ele><time>2026-4-28T20:25:3Z</time></trkpt>
<trkpt lat="48.9768618" lon="3.2209188"><ele>60.56</ele><time>2026-4-28T20:25:6Z</time></trkpt>
<trkpt lat="48.9766798" lon="3.2210157"><ele>60.56</ele><time>2026-4-28T20:25:9Z</time></trkpt>
<trkpt lat="48.9765071" lon="3.2211139"><ele>61.39</ele><time>2026-4-28T20:25:12Z</time></trkpt>
<trkpt lat="48.9763295" lon="3.2211959"><ele>60.26</ele><time>2026-4-28T20:25:15Z</time></trkpt>
<trkpt lat="48.9761558" lon="3.2212674"><ele>59.06</ele><time>2026-4-28T20:25:18Z</time></trkpt>
<trkpt lat="48.9759721" lon="3.2213372"><ele>58.16</ele><time>2026-4-28T20:25:21Z</time></trkpt>
<trkpt lat="48.9757662" lon="3.2214150"><ele>57.52</ele><time>2026-4-28T20:25:24Z</time></trkpt>
<trkpt lat="48.9755635" lon="3.2214917"><ele>57.24</ele><time>2026-4-28T20:25:27Z</time></trkpt>
<trkpt lat="48.9753594" lon="3.2215493"><ele>56.98</ele><time>2026-4-28T20:25:30Z</time></trkpt>
<trkpt lat="48.9751621" lon="3.2215445"><ele>56.84</ele><time>2026-4-28T20:25:33Z</time></trkpt>
<trkpt lat="48.9749592" lon="3.2214848"><ele>56.92</ele><time>2026-4-28T20:25:36Z</time></trkpt>
<trkpt lat="48.9747559" lon="3.2213858"><ele>57.93</ele><time>2026-4-28T20:25:39Z</time></trkpt>
<trkpt lat="48.9745596" lon="3.2212921"><ele>58.86</ele><time>2026-4-28T20:25:42Z</time></trkpt>
<trkpt lat="48.9743709" lon="3.2212187"><ele>60.15</ele><time>2026-4-28T20:25:45Z</time></trkpt>
<trkpt lat="48.9741713" lon="3.2211952"><ele>60.86</ele><time>2026-4-28T20:25:48Z</time></trkpt>
<trkpt lat="48.9739752" lon="3.2212008"><ele>61.41</ele><time>2026-4-28T20:25:51Z</time></trkpt>
<trkpt lat="48.9737711" lon="3.2211901"><ele>62.14</ele><time>2026-4-28T20:25:54Z</time></trkpt>
<trkpt lat="48.9735904" lon="3.2211653"><ele>62.19</ele><time>2026-4-28T20:25:57Z</time></trkpt>
<trkpt lat="48.9734354" lon="3.2210148"><ele>62.67</ele><time>2026-4-28T20:26:0Z</time></trkpt>
<trkpt lat="48.9733255" lon="3.2207943"><ele>63.93</ele><time>2026-4-28T20:26:3Z</time></trkpt>
<trkpt lat="48.9731848" lon="3.2205751"><ele>64.62</ele><time>2026-4-28T20:26:6Z</time></trkpt>
<trkpt lat="48.9730732" lon="3.2203201"><ele>66.11</ele><time>2026-4-28T20:26:9Z</time></trkpt>
<trkpt lat="48.9729648" lon="3.2200582"><ele>67.04</ele><time>2026-4-28T20:26:12Z</time></trkpt>
<trkpt lat="48.9728541" lon="3.2197703"><ele>66.74</ele><time>2026-4-28T20:26:15Z</time></trkpt>
<trkpt lat="48.9727326" lon="3.2194930"><ele>66.67</ele><time>2026-4-28T20:26:18Z</time></trkpt>
<trkpt lat="48.9726256" lon="3.2192403"><ele>66.43</ele><time>2026-4-28T20:26:21Z</time></trkpt>
<trkpt lat="48.9725138" lon="3.2189892"><ele>66.48</ele><time>2026-4-28T20:26:24Z</time></trkpt>
<trkpt lat="48.9723836" lon="3.2187554"><ele>66.29</ele><time>2026-4-28T20:26:27Z</time></trkpt>
<trkpt lat="48.9722138" lon="3.2186486"><ele>66.56</ele><time>2026-4-28T20:26:30Z</time></trkpt>
<trkpt lat="48.9720094" lon="3.2185924"><ele>68.01</ele><time>2026-4-28T20:26:33Z</time></trkpt>
<trkpt lat="48.9718157" lon="3.2185378"><ele>67.35</ele><time>2026-4-28T20:26:36Z</time></trkpt>
<trkpt lat="48.9716101" lon="3.2184846"><ele>66.30</ele><time>2026-4-28T20:26:39Z</time></trkpt>
<trkpt lat="48.9714010" lon="3.2184305"><ele>66.76</ele><time>2026-4-28T20:26:42Z</time></trkpt>
<trkpt lat="48.9712249" lon="3.2183695"><ele>67.31</ele><time>2026-4-28T20:26:45Z</time></trkpt>
<trkpt lat="48.9710463" lon="3.2182726"><ele>69.49</ele><time>2026-4-28T20:26:48Z</time></trkpt>
<trkpt lat="48.9708655" lon="3.2182200"><ele>69.66</ele><time>2026-4-28T20:26:51Z</time></trkpt>
<trkpt lat="48.9706950" lon="3.2181163"><ele>69.76</ele><time>2026-4-28T20:26:54Z</time></trkpt>
<trkpt lat="48.9705100" lon="3.2179999"><ele>69.01</ele><time>2026-4-28T20:26:57Z</time></trkpt>
<trkpt lat="48.9703183" lon="3.2178748"><ele>69.59</ele><time>2026-4-28T20:27:0Z</time></trkpt>
<trkpt lat="48.9701329" lon="3.2177639"><ele>70.00</ele><time>2026-4-28T20:27:3Z</time></trkpt>
<trkpt lat="48.9699575" lon="3.2176385"><ele>69.75</ele><time>2026-4-28T20:27:6Z</time></trkpt>
<trkpt lat="48.9697917" lon="3.2175017"><ele>69.92</ele><time>2026-4-28T20:27:9Z</time></trkpt>
<trkpt lat="48.9696389" lon="3.2173333"><ele>69.96</ele><time>2026-4-28T20:27:12Z</time></trkpt>
<trkpt lat="48.9694821" lon="3.2171297"><ele>69.47</ele><time>2026-4-28T20:27:15Z</time></trkpt>
<trkpt lat="48.9693375" lon="3.2168963"><ele>69.85</ele><time>2026-4-28T20:27:18Z</time></trkpt>
<trkpt lat="48.9692131" lon="3.2166926"><ele>69.55</ele><time>2026-4-28T20:27:21Z</time></trkpt>
<trkpt lat="48.9690838" lon="3.2164827"><ele>70.33</ele><time>2026-4-28T20:27:24Z</time></trkpt>
<trkpt lat="48.9689501" lon="3.2162753"><ele>70.95</ele><time>2026-4-28T20:27:27Z</time></trkpt>
<trkpt lat="48.9688201" lon="3.2160731"><ele>70.54</ele><time>2026-4-28T20:27:30Z</time></trkpt>
<trkpt lat="48.9686904" lon="3.2158433"><ele>69.57</ele><time>2026-4-28T20:27:33Z</time></trkpt>
<trkpt lat="48.9685467" lon="3.2156125"><ele>69.11</ele><time>2026-4-28T20:27:36Z</time></trkpt>
<trkpt lat="48.9683951" lon="3.2153776"><ele>68.77</ele><time>2026-4-28T20:27:39Z</time></trkpt>
<trkpt lat="48.9682463" lon="3.2151522"><ele>67.89</ele><time>2026-4-28T20:27:42Z</time></trkpt>
<trkpt lat="48.9681146" lon="3.2149531"><ele>66.87</ele><time>2026-4-28T20:27:45Z</time></trkpt>
<trkpt lat="48.9679686" lon="3.2147572"><ele>66.08</ele><time>2026-4-28T20:27:48Z</time></trkpt>
<trkpt lat="48.9678161" lon="3.2145563"><ele>66.25</ele><time>2026-4-28T20:27:51Z</time></trkpt>
<trkpt lat="48.9676567" lon="3.2143485"><ele>66.12</ele><time>2026-4-28T20:27:54Z</time></trkpt>
<trkpt lat="48.9675006" lon="3.2141912"><ele>66.34</ele><time>2026-4-28T20:27:57Z</time></trkpt>
<trkpt lat="48.9673724" lon="3.2139986"><ele>65.64</ele><time>2026-4-28T20:28:0Z</time></trkpt>
<trkpt lat="48.9672255" lon="3.2138276"><ele>65.78</ele><time>2026-4-28T20:28:3Z</time></trkpt>
<trkpt lat="48.9670802" lon="3.2136193"><ele>65.43</ele><time>2026-4-28T20:28:6Z</time></trkpt>
<trkpt lat="48.9669309" lon="3.2134529"><ele>65.21</ele><time>2026-4-28T20:28:9Z</time></trkpt>
<trkpt lat="48.9667626" lon="3.2132919"><ele>64.34</ele><time>2026-4-28T20:28:12Z</time></trkpt>
<trkpt lat="48.9665746" lon="3.2131626"><ele>63.40</ele><time>2026-4-28T20:28:15Z</time></trkpt>
<trkpt lat="48.9663869" lon="3.2130464"><ele>62.88</ele><time>2026-4-28T20:28:18Z</time></trkpt>
<trkpt lat="48.9661922" lon="3.2129721"><ele>63.11</ele><time>2026-4-28T20:28:21Z</time></trkpt>
<trkpt lat="48.9659833" lon="3.2129180"><ele>63.21</ele><time>2026-4-28T20:28:24Z</time></trkpt>
<trkpt lat="48.9657756" lon="3.2128612"><ele>62.96</ele><time>2026-4-28T20:28:27Z</time></trkpt>
<trkpt lat="48.9655830" lon="3.2128012"><ele>62.72</ele><time>2026-4-28T20:28:30Z</time></trkpt>
<trkpt lat="48.9654018" lon="3.2127542"><ele>62.97</ele><time>2026-4-28T20:28:33Z</time></trkpt>
<trkpt lat="48.9652184" lon="3.2126820"><ele>63.94</ele><time>2026-4-28T20:28:36Z</time></trkpt>
<trkpt lat="48.9650416" lon="3.2126240"><ele>64.10</ele><time>2026-4-28T20:28:39Z</time></trkpt>
<trkpt lat="48.9648652" lon="3.2125700"><ele>63.69</ele><time>2026-4-28T20:28:42Z</time></trkpt>
<trkpt lat="48.9646653" lon="3.2124977"><ele>63.83</ele><time>2026-4-28T20:28:45Z</time></trkpt>
<trkpt lat="48.9644641" lon="3.2124261"><ele>61.95</ele><time>2026-4-28T20:28:48Z</time></trkpt>
<trkpt lat="48.9642688" lon="3.2123682"><ele>62.98</ele><time>2026-4-28T20:28:51Z</time></trkpt>
<trkpt lat="48.9640887" lon="3.2123480"><ele>64.36</ele><time>2026-4-28T20:28:54Z</time></trkpt>
<trkpt lat="48.9639028" lon="3.2122020"><ele>64.66</ele><time>2026-4-28T20:28:57Z</time></trkpt>
<trkpt lat="48.9637324" lon="3.2120632"><ele>64.40</ele><time>2026-4-28T20:29:0Z</time></trkpt>
<trkpt lat="48.9635436" lon="3.2119335"><ele>49.04</ele><time>2026-4-28T20:29:3Z</time></trkpt>
<trkpt lat="48.9633691" lon="3.2117596"><ele>36.66</ele><time>2026-4-28T20:29:6Z</time></trkpt>
<trkpt lat="48.9632016" lon="3.2115736"><ele>39.84</ele><time>2026-4-28T20:29:9Z</time></trkpt>
<trkpt lat="48.9630220" lon="3.2114137"><ele>47.51</ele><time>2026-4-28T20:29:12Z</time></trkpt>
<trkpt lat="48.9628449" lon="3.2112259"><ele>52.28</ele><time>2026-4-28T20:29:15Z</time></trkpt>
<trkpt lat="48.9626815" lon="3.2110332"><ele>54.44</ele><time>2026-4-28T20:29:18Z</time></trkpt>
<trkpt lat="48.9625195" lon="3.2108617"><ele>55.57</ele><time>2026-4-28T20:29:21Z</time></trkpt>
<trkpt lat="48.9623479" lon="3.2107431"><ele>57.00</ele><time>2026-4-28T20:29:24Z</time></trkpt>
<trkpt lat="48.9621763" lon="3.2106554"><ele>61.31</ele><time>2026-4-28T20:29:27Z</time></trkpt>
<trkpt lat="48.9620120" lon="3.2105148"><ele>58.24</ele><time>2026-4-28T20:29:30Z</time></trkpt>
<trkpt lat="48.9619339" lon="3.2102331"><ele>54.98</ele><time>2026-4-28T20:29:33Z</time></trkpt>
<trkpt lat="48.9618470" lon="3.2099480"><ele>53.66</ele><time>2026-4-28T20:29:36Z</time></trkpt>
<trkpt lat="48.9617332" lon="3.2096966"><ele>54.62</ele><time>2026-4-28T20:29:39Z</time></trkpt>
<trkpt lat="48.9616329" lon="3.2094365"><ele>54.68</ele><time>2026-4-28T20:29:42Z</time></trkpt>
<trkpt lat="48.9615255" lon="3.2091674"><ele>53.07</ele><time>2026-4-28T20:29:45Z</time></trkpt>
<trkpt lat="48.9614500" lon="3.2088903"><ele>56.75</ele><time>2026-4-28T20:29:48Z</time></trkpt>
<trkpt lat="48.9613960" lon="3.2086217"><ele>58.40</ele><time>2026-4-28T20:29:51Z</time></trkpt>
<trkpt lat="48.9612765" lon="3.2083852"><ele>54.28</ele><time>2026-4-28T20:29:54Z</time></trkpt>
<trkpt lat="48.9611822" lon="3.2081304"><ele>52.62</ele><time>2026-4-28T20:29:57Z</time></trkpt>
<trkpt lat="48.9609933" lon="3.2080446"><ele>52.83</ele><time>2026-4-28T20:30:0Z</time></trkpt>
<trkpt lat="48.9608181" lon="3.2079183"><ele>52.92</ele><time>2026-4-28T20:30:3Z</time></trkpt>
<trkpt lat="48.9606435" lon="3.2078012"><ele>54.01</ele><time>2026-4-28T20:30:6Z</time></trkpt>
<trkpt lat="48.9604446" lon="3.2077378"><ele>53.10</ele><time>2026-4-28T20:30:9Z</time></trkpt>
<trkpt lat="48.9602596" lon="3.2076933"><ele>52.32</ele><time>2026-4-28T20:30:12Z</time></trkpt>
<trkpt lat="48.9600747" lon="3.2076144"><ele>53.57</ele><time>2026-4-28T20:30:15Z</time></trkpt>
<trkpt lat="48.9598667" lon="3.2076602"><ele>52.66</ele><time>2026-4-28T20:30:18Z</time></trkpt>
<trkpt lat="48.9596970" lon="3.2077914"><ele>55.14</ele><time>2026-4-28T20:30:21Z</time></trkpt>
<trkpt lat="48.9595028" lon="3.2078556"><ele>54.84</ele><time>2026-4-28T20:30:24Z</time></trkpt>
<trkpt lat="48.9593296" lon="3.2077534"><ele>55.10</ele><time>2026-4-28T20:30:27Z</time></trkpt>
<trkpt lat="48.9591645" lon="3.2076428"><ele>55.02</ele><time>2026-4-28T20:30:30Z</time></trkpt>
<trkpt lat="48.9590080" lon="3.2075066"><ele>54.63</ele><time>2026-4-28T20:30:33Z</time></trkpt>
<trkpt lat="48.9588456" lon="3.2073529"><ele>54.64</ele><time>2026-4-28T20:30:36Z</time></trkpt>
<trkpt lat="48.9586921" lon="3.2071629"><ele>53.89</ele><time>2026-4-28T20:30:39Z</time></trkpt>
<trkpt lat="48.9585394" lon="3.2069497"><ele>52.69</ele><time>2026-4-28T20:30:42Z</time></trkpt>
<trkpt lat="48.9584072" lon="3.2067066"><ele>51.11</ele><time>2026-4-28T20:30:45Z</time></trkpt>
<trkpt lat="48.9582658" lon="3.2064620"><ele>50.39</ele><time>2026-4-28T20:30:48Z</time></trkpt>
<trkpt lat="48.9580977" lon="3.2062465"><ele>50.08</ele><time>2026-4-28T20:30:51Z</time></trkpt>
<trkpt lat="48.9579220" lon="3.2060469"><ele>50.63</ele><time>2026-4-28T20:30:54Z</time></trkpt>
<trkpt lat="48.9577286" lon="3.2059099"><ele>50.44</ele><time>2026-4-28T20:30:57Z</time></trkpt>
<trkpt lat="48.9575422" lon="3.2058001"><ele>51.55</ele><time>2026-4-28T20:31:0Z</time></trkpt>
<trkpt lat="48.9573474" lon="3.2056862"><ele>51.07</ele><time>2026-4-28T20:31:3Z</time></trkpt>
<trkpt lat="48.9571591" lon="3.2055546"><ele>51.25</ele><time>2026-4-28T20:31:6Z</time></trkpt>
<trkpt lat="48.9569702" lon="3.2054509"><ele>50.82</ele><time>2026-4-28T20:31:9Z</time></trkpt>
<trkpt lat="48.9568060" lon="3.2053387"><ele>51.38</ele><time>2026-4-28T20:31:12Z</time></trkpt>
<trkpt lat="48.9566153" lon="3.2052002"><ele>49.83</ele><time>2026-4-28T20:31:15Z</time></trkpt>
<trkpt lat="48.9564464" lon="3.2050589"><ele>48.94</ele><time>2026-4-28T20:31:18Z</time></trkpt>
<trkpt lat="48.9562549" lon="3.2049361"><ele>50.55</ele><time>2026-4-28T20:31:21Z</time></trkpt>
<trkpt lat="48.9560887" lon="3.2048264"><ele>52.27</ele><time>2026-4-28T20:31:24Z</time></trkpt>
<trkpt lat="48.9559778" lon="3.2045813"><ele>48.11</ele><time>2026-4-28T20:31:27Z</time></trkpt>
<trkpt lat="48.9559748" lon="3.2042975"><ele>47.77</ele><time>2026-4-28T20:31:30Z</time></trkpt>
<trkpt lat="48.9559681" lon="3.2040010"><ele>47.86</ele><time>2026-4-28T20:31:33Z</time></trkpt>
<trkpt lat="48.9559654" lon="3.2036963"><ele>46.50</ele><time>2026-4-28T20:31:36Z</time></trkpt>
<trkpt lat="48.9560288" lon="3.2034387"><ele>44.50</ele><time>2026-4-28T20:31:39Z</time></trkpt>
<trkpt lat="48.9561245" lon="3.2031820"><ele>45.28</ele><time>2026-4-28T20:31:42Z</time></trkpt>
<trkpt lat="48.9562290" lon="3.2029250"><ele>42.34</ele><time>2026-4-28T20:31:45Z</time></trkpt>
<trkpt lat="48.9562818" lon="3.2026285"><ele>44.04</ele><time>2026-4-28T20:31:48Z</time></trkpt>
<trkpt lat="48.9563348" lon="3.2023425"><ele>45.06</ele><time>2026-4-28T20:31:51Z</time></trkpt>
<trkpt lat="48.9564083" lon="3.2020734"><ele>45.67</ele><time>2026-4-28T20:31:54Z</time></trkpt>
<trkpt lat="48.9564871" lon="3.2018138"><ele>45.39</ele><time>2026-4-28T20:31:57Z</time></trkpt>
<trkpt lat="48.9565452" lon="3.2015357"><ele>45.91</ele><time>2026-4-28T20:32:0Z</time></trkpt>
<trkpt lat="48.9565979" lon="3.2012376"><ele>46.07</ele><time>2026-4-28T20:32:3Z</time></trkpt>
<trkpt lat="48.9566536" lon="3.2009459"><ele>45.68</ele><time>2026-4-28T20:32:6Z</time></trkpt>
<trkpt lat="48.9566031" lon="3.2006463"><ele>46.01</ele><time>2026-4-28T20:32:9Z</time></trkpt>
<trkpt lat="48.9564571" lon="3.2004577"><ele>46.35</ele><time>2026-4-28T20:32:12Z</time></trkpt>
<trkpt lat="48.9563051" lon="3.2002406"><ele>46.54</ele><time>2026-4-28T20:32:15Z</time></trkpt>
<trkpt lat="48.9561425" lon="3.2000263"><ele>45.73</ele><time>2026-4-28T20:32:18Z</time></trkpt>
<trkpt lat="48.9560085" lon="3.1998423"><ele>46.02</ele><time>2026-4-28T20:32:21Z</time></trkpt>
<trkpt lat="48.9558690" lon="3.1996566"><ele>46.75</ele><time>2026-4-28T20:32:24Z</time></trkpt>
<trkpt lat="48.9557270" lon="3.1994468"><ele>46.63</ele><time>2026-4-28T20:32:27Z</time></trkpt>
<trkpt lat="48.9555908" lon="3.1992472"><ele>47.17</ele><time>2026-4-28T20:32:30Z</time></trkpt>
<trkpt lat="48.9554536" lon="3.1990697"><ele>49.28</ele><time>2026-4-28T20:32:33Z</time></trkpt>
<trkpt lat="48.9553098" lon="3.1988707"><ele>48.98</ele><time>2026-4-28T20:32:36Z</time></trkpt>
<trkpt lat="48.9551576" lon="3.1986690"><ele>51.11</ele><time>2026-4-28T20:32:39Z</time></trkpt>
<trkpt lat="48.9550049" lon="3.1984817"><ele>51.50</ele><time>2026-4-28T20:32:42Z</time></trkpt>
<trkpt lat="48.9548739" lon="3.1982792"><ele>51.48</ele><time>2026-4-28T20:32:45Z</time></trkpt>
<trkpt lat="48.9547406" lon="3.1980494"><ele>51.39</ele><time>2026-4-28T20:32:48Z</time></trkpt>
<trkpt lat="48.9546089" lon="3.1978263"><ele>51.46</ele><time>2026-4-28T20:32:51Z</time></trkpt>
<trkpt lat="48.9544775" lon="3.1976315"><ele>52.07</ele><time>2026-4-28T20:32:54Z</time></trkpt>
<trkpt lat="48.9543422" lon="3.1973729"><ele>53.05</ele><time>2026-4-28T20:32:57Z</time></trkpt>
<trkpt lat="48.9542241" lon="3.1971126"><ele>53.44</ele><time>2026-4-28T20:33:0Z</time></trkpt>
<trkpt lat="48.9541159" lon="3.1968677"><ele>53.01</ele><time>2026-4-28T20:33:3Z</time></trkpt>
<trkpt lat="48.9539849" lon="3.1966187"><ele>56.09</ele><time>2026-4-28T20:33:6Z</time></trkpt>
<trkpt lat="48.9539615" lon="3.1963423"><ele>55.50</ele><time>2026-4-28T20:33:9Z</time></trkpt>
<trkpt lat="48.9538507" lon="3.1960613"><ele>53.08</ele><time>2026-4-28T20:33:12Z</time></trkpt>
<trkpt lat="48.9537702" lon="3.1958057"><ele>54.95</ele><time>2026-4-28T20:33:15Z</time></trkpt>
<trkpt lat="48.9536989" lon="3.1955386"><ele>55.95</ele><time>2026-4-28T20:33:18Z</time></trkpt>
<trkpt lat="48.9535967" lon="3.1952464"><ele>55.71</ele><time>2026-4-28T20:33:21Z</time></trkpt>
<trkpt lat="48.9535163" lon="3.1949799"><ele>54.29</ele><time>2026-4-28T20:33:24Z</time></trkpt>
<trkpt lat="48.9534316" lon="3.1947329"><ele>54.55</ele><time>2026-4-28T20:33:27Z</time></trkpt>
<trkpt lat="48.9533344" lon="3.1944722"><ele>54.50</ele><time>2026-4-28T20:33:30Z</time></trkpt>
<trkpt lat="48.9532158" lon="3.1942238"><ele>55.01</ele><time>2026-4-28T20:33:33Z</time></trkpt>
<trkpt lat="48.9531187" lon="3.1939606"><ele>54.46</ele><time>2026-4-28T20:33:36Z</time></trkpt>
<trkpt lat="48.9530032" lon="3.1937188"><ele>54.79</ele><time>2026-4-28T20:33:39Z</time></trkpt>
<trkpt lat="48.9528770" lon="3.1934633"><ele>54.62</ele><time>2026-4-28T20:33:42Z</time></trkpt>
<trkpt lat="48.9527966" lon="3.1931995"><ele>53.84</ele><time>2026-4-28T20:33:45Z</time></trkpt>
<trkpt lat="48.9527015" lon="3.1929377"><ele>53.90</ele><time>2026-4-28T20:33:48Z</time></trkpt>
<trkpt lat="48.9526500" lon="3.1926416"><ele>50.91</ele><time>2026-4-28T20:33:51Z</time></trkpt>
<trkpt lat="48.9526029" lon="3.1923486"><ele>49.55</ele><time>2026-4-28T20:33:54Z</time></trkpt>
<trkpt lat="48.9525740" lon="3.1920594"><ele>49.38</ele><time>2026-4-28T20:33:57Z</time></trkpt>
<trkpt lat="48.9525267" lon="3.1917823"><ele>50.26</ele><time>2026-4-28T20:34:0Z</time></trkpt>
<trkpt lat="48.9525319" lon="3.1914781"><ele>47.64</ele><time>2026-4-28T20:34:3Z</time></trkpt>
<trkpt lat="48.9524788" lon="3.1912089"><ele>49.23</ele><time>2026-4-28T20:34:6Z</time></trkpt>
<trkpt lat="48.9524720" lon="3.1909130"><ele>50.41</ele><time>2026-4-28T20:34:9Z</time></trkpt>
<trkpt lat="48.9525138" lon="3.1906390"><ele>50.03</ele><time>2026-4-28T20:34:12Z</time></trkpt>
<trkpt lat="48.9524565" lon="3.1903480"><ele>52.20</ele><time>2026-4-28T20:34:15Z</time></trkpt>
<trkpt lat="48.9524300" lon="3.1900505"><ele>50.67</ele><time>2026-4-28T20:34:18Z</time></trkpt>
<trkpt lat="48.9524884" lon="3.1897533"><ele>48.56</ele><time>2026-4-28T20:34:21Z</time></trkpt>
<trkpt lat="48.9525821" lon="3.1895025"><ele>48.40</ele><time>2026-4-28T20:34:24Z</time></trkpt>
<trkpt lat="48.9526908" lon="3.1892799"><ele>51.34</ele><time>2026-4-28T20:34:27Z</time></trkpt>
<trkpt lat="48.9527778" lon="3.1889889"><ele>49.61</ele><time>2026-4-28T20:34:30Z</time></trkpt>
<trkpt lat="48.9528325" lon="3.1887030"><ele>49.07</ele><time>2026-4-28T20:34:33Z</time></trkpt>
<trkpt lat="48.9529537" lon="3.1884241"><ele>47.05</ele><time>2026-4-28T20:34:36Z</time></trkpt>
<trkpt lat="48.9530621" lon="3.1881658"><ele>46.82</ele><time>2026-4-28T20:34:39Z</time></trkpt>
<trkpt lat="48.9531613" lon="3.1879185"><ele>45.94</ele><time>2026-4-28T20:34:42Z</time></trkpt>
<trkpt lat="48.9532598" lon="3.1876605"><ele>44.87</ele><time>2026-4-28T20:34:45Z</time></trkpt>
<trkpt lat="48.9533861" lon="3.1874454"><ele>42.37</ele><time>2026-4-28T20:34:48Z</time></trkpt>
<trkpt lat="48.9535385" lon="3.1872559"><ele>40.87</ele><time>2026-4-28T20:34:51Z</time></trkpt>
<trkpt lat="48.9536969" lon="3.1870634"><ele>42.22</ele><time>2026-4-28T20:34:54Z</time></trkpt>
<trkpt lat="48.9538058" lon="3.1868135"><ele>48.56</ele><time>2026-4-28T20:34:57Z</time></trkpt>
<trkpt lat="48.9539113" lon="3.1865904"><ele>49.84</ele><time>2026-4-28T20:35:0Z</time></trkpt>
<trkpt lat="48.9540545" lon="3.1864220"><ele>50.49</ele><time>2026-4-28T20:35:3Z</time></trkpt>
<trkpt lat="48.9542013" lon="3.1862349"><ele>49.81</ele><time>2026-4-28T20:35:6Z</time></trkpt>
<trkpt lat="48.9543511" lon="3.1860308"><ele>49.95</ele><time>2026-4-28T20:35:9Z</time></trkpt>
<trkpt lat="48.9545326" lon="3.1859049"><ele>51.30</ele><time>2026-4-28T20:35:12Z</time></trkpt>
<trkpt lat="48.9546995" lon="3.1857037"><ele>53.87</ele><time>2026-4-28T20:35:15Z</time></trkpt>
<trkpt lat="48.9548360" lon="3.1854580"><ele>56.32</ele><time>2026-4-28T20:35:18Z</time></trkpt>
<trkpt lat="48.9550139" lon="3.1852686"><ele>57.17</ele><time>2026-4-28T20:35:21Z</time></trkpt>
<trkpt lat="48.9551680" lon="3.1851244"><ele>57.98</ele><time>2026-4-28T20:35:24Z</time></trkpt>
<trkpt lat="48.9553449" lon="3.1849768"><ele>56.33</ele><time>2026-4-28T20:35:27Z</time></trkpt>
<trkpt lat="48.9555066" lon="3.1848451"><ele>52.32</ele><time>2026-4-28T20:35:30Z</time></trkpt>
<trkpt lat="48.9557015" lon="3.1848074"><ele>51.75</ele><time>2026-4-28T20:35:33Z</time></trkpt>
<trkpt lat="48.9558868" lon="3.1847582"><ele>51.12</ele><time>2026-4-28T20:35:36Z</time></trkpt>
<trkpt lat="48.9560774" lon="3.1847189"><ele>51.11</ele><time>2026-4-28T20:35:39Z</time></trkpt>
<trkpt lat="48.9562744" lon="3.1846972"><ele>49.62</ele><time>2026-4-28T20:35:42Z</time></trkpt>
<trkpt lat="48.9564858" lon="3.1846979"><ele>48.71</ele><time>2026-4-28T20:35:45Z</time></trkpt>
<trkpt lat="48.9566758" lon="3.1846578"><ele>49.33</ele><time>2026-4-28T20:35:48Z</time></trkpt>
<trkpt lat="48.9568599" lon="3.1846187"><ele>48.90</ele><time>2026-4-28T20:35:51Z</time></trkpt>
<trkpt lat="48.9570577" lon="3.1845642"><ele>49.75</ele><time>2026-4-28T20:35:54Z</time></trkpt>
<trkpt lat="48.9572595" lon="3.1845113"><ele>51.31</ele><time>2026-4-28T20:35:57Z</time></trkpt>
<trkpt lat="48.9574648" lon="3.1844572"><ele>51.15</ele><time>2026-4-28T20:36:0Z</time></trkpt>
<trkpt lat="48.9576466" lon="3.1844425"><ele>49.79</ele><time>2026-4-28T20:36:3Z</time></trkpt>
<trkpt lat="48.9578296" lon="3.1844336"><ele>49.48</ele><time>2026-4-28T20:36:6Z</time></trkpt>
<trkpt lat="48.9580507" lon="3.1844795"><ele>50.63</ele><time>2026-4-28T20:36:9Z</time></trkpt>
<trkpt lat="48.9582686" lon="3.1845044"><ele>50.01</ele><time>2026-4-28T20:36:12Z</time></trkpt>
<trkpt lat="48.9584760" lon="3.1845659"><ele>50.33</ele><time>2026-4-28T20:36:15Z</time></trkpt>
<trkpt lat="48.9586563" lon="3.1845990"><ele>50.58</ele><time>2026-4-28T20:36:18Z</time></trkpt>
<trkpt lat="48.9588483" lon="3.1846503"><ele>48.75</ele><time>2026-4-28T20:36:21Z</time></trkpt>
<trkpt lat="48.9590459" lon="3.1846670"><ele>49.35</ele><time>2026-4-28T20:36:24Z</time></trkpt>
<trkpt lat="48.9592478" lon="3.1846851"><ele>48.75</ele><time>2026-4-28T20:36:27Z</time></trkpt>
<trkpt lat="48.9594526" lon="3.1846983"><ele>48.00</ele><time>2026-4-28T20:36:30Z</time></trkpt>
<trkpt lat="48.9596468" lon="3.1846878"><ele>48.25</ele><time>2026-4-28T20:36:33Z</time></trkpt>
<trkpt lat="48.9598430" lon="3.1846956"><ele>48.28</ele><time>2026-4-28T20:36:36Z</time></trkpt>
<trkpt lat="48.9600399" lon="3.1847024"><ele>49.18</ele><time>2026-4-28T20:36:39Z</time></trkpt>
<trkpt lat="48.9602354" lon="3.1847791"><ele>49.71</ele><time>2026-4-28T20:36:42Z</time></trkpt>
<trkpt lat="48.9604332" lon="3.1848947"><ele>49.88</ele><time>2026-4-28T20:36:45Z</time></trkpt>
<trkpt lat="48.9606478" lon="3.1849980"><ele>50.17</ele><time>2026-4-28T20:36:48Z</time></trkpt>
<trkpt lat="48.9608501" lon="3.1850819"><ele>52.39</ele><time>2026-4-28T20:36:51Z</time></trkpt>
<trkpt lat="48.9610508" lon="3.1851657"><ele>50.96</ele><time>2026-4-28T20:36:54Z</time></trkpt>
<trkpt lat="48.9612716" lon="3.1852738"><ele>50.60</ele><time>2026-4-28T20:36:57Z</time></trkpt>
<trkpt lat="48.9614688" lon="3.1853513"><ele>53.16</ele><time>2026-4-28T20:37:0Z</time></trkpt>
<trkpt lat="48.9616572" lon="3.1854416"><ele>53.34</ele><time>2026-4-28T20:37:3Z</time></trkpt>
<trkpt lat="48.9618493" lon="3.1855458"><ele>52.10</ele><time>2026-4-28T20:37:6Z</time></trkpt>
<trkpt lat="48.9620377" lon="3.1856201"><ele>52.85</ele><time>2026-4-28T20:37:9Z</time></trkpt>
<trkpt lat="48.9622437" lon="3.1857001"><ele>53.64</ele><time>2026-4-28T20:37:12Z</time></trkpt>
<trkpt lat="48.9624210" lon="3.1857629"><ele>51.95</ele><time>2026-4-28T20:37:15Z</time></trkpt>
<trkpt lat="48.9624932" lon="3.1855027"><ele>47.66</ele><time>2026-4-28T20:37:18Z</time></trkpt>
<trkpt lat="48.9625083" lon="3.1851984"><ele>49.03</ele><time>2026-4-28T20:37:21Z</time></trkpt>
<trkpt lat="48.9626248" lon="3.1849805"><ele>50.15</ele><time>2026-4-28T20:37:24Z</time></trkpt>
<trkpt lat="48.9628305" lon="3.1850701"><ele>52.34</ele><time>2026-4-28T20:37:27Z</time></trkpt>
<trkpt lat="48.9630424" lon="3.1851720"><ele>52.50</ele><time>2026-4-28T20:37:30Z</time></trkpt>
<trkpt lat="48.9632564" lon="3.1852334"><ele>51.37</ele><time>2026-4-28T20:37:33Z</time></trkpt>
<trkpt lat="48.9634507" lon="3.1853032"><ele>51.23</ele><time>2026-4-28T20:37:36Z</time></trkpt>
<trkpt lat="48.9636401" lon="3.1854559"><ele>52.23</ele><time>2026-4-28T20:37:39Z</time></trkpt>
<trkpt lat="48.9638371" lon="3.1855158"><ele>52.18</ele><time>2026-4-28T20:37:42Z</time></trkpt>
<trkpt lat="48.9640152" lon="3.1855541"><ele>51.62</ele><time>2026-4-28T20:37:45Z</time></trkpt>
<trkpt lat="48.9641938" lon="3.1856048"><ele>51.61</ele><time>2026-4-28T20:37:48Z</time></trkpt>
<trkpt lat="48.9643747" lon="3.1856589"><ele>52.08</ele><time>2026-4-28T20:37:51Z</time></trkpt>
<trkpt lat="48.9645695" lon="3.1856612"><ele>55.10</ele><time>2026-4-28T20:37:54Z</time></trkpt>
<trkpt lat="48.9647444" lon="3.1857265"><ele>55.64</ele><time>2026-4-28T20:37:57Z</time></trkpt>
<trkpt lat="48.9649500" lon="3.1857593"><ele>56.90</ele><time>2026-4-28T20:38:0Z</time></trkpt>
<trkpt lat="48.9651494" lon="3.1858186"><ele>60.04</ele><time>2026-4-28T20:38:3Z</time></trkpt>
<trkpt lat="48.9653464" lon="3.1858084"><ele>63.63</ele><time>2026-4-28T20:38:6Z</time></trkpt>
<trkpt lat="48.9655281" lon="3.1857939"><ele>67.44</ele><time>2026-4-28T20:38:9Z</time></trkpt>
<trkpt lat="48.9657077" lon="3.1859581"><ele>62.77</ele><time>2026-4-28T20:38:12Z</time></trkpt>
<trkpt lat="48.9659003" lon="3.1860222"><ele>64.31</ele><time>2026-4-28T20:38:15Z</time></trkpt>
<trkpt lat="48.9661219" lon="3.1859634"><ele>66.49</ele><time>2026-4-28T20:38:18Z</time></trkpt>
<trkpt lat="48.9663066" lon="3.1859971"><ele>70.63</ele><time>2026-4-28T20:38:21Z</time></trkpt>
<trkpt lat="48.9664916" lon="3.1860021"><ele>73.08</ele><time>2026-4-28T20:38:24Z</time></trkpt>
<trkpt lat="48.9666855" lon="3.1859135"><ele>72.83</ele><time>2026-4-28T20:38:27Z</time></trkpt>
<trkpt lat="48.9668765" lon="3.1859296"><ele>70.23</ele><time>2026-4-28T20:38:30Z</time></trkpt>
<trkpt lat="48.9670600" lon="3.1859608"><ele>73.42</ele><time>2026-4-28T20:38:33Z</time></trkpt>
<trkpt lat="48.9672420" lon="3.1859369"><ele>71.51</ele><time>2026-4-28T20:38:36Z</time></trkpt>
<trkpt lat="48.9674254" lon="3.1859230"><ele>78.29</ele><time>2026-4-28T20:38:39Z</time></trkpt>
<trkpt lat="48.9676443" lon="3.1859328"><ele>80.36</ele><time>2026-4-28T20:38:42Z</time></trkpt>
<trkpt lat="48.9678672" lon="3.1858850"><ele>78.25</ele><time>2026-4-28T20:38:45Z</time></trkpt>
<trkpt lat="48.9680730" lon="3.1858212"><ele>78.30</ele><time>2026-4-28T20:38:48Z</time></trkpt>
<trkpt lat="48.9682792" lon="3.1857524"><ele>78.36</ele><time>2026-4-28T20:38:51Z</time></trkpt>
<trkpt lat="48.9684595" lon="3.1856321"><ele>78.92</ele><time>2026-4-28T20:38:54Z</time></trkpt>
<trkpt lat="48.9686490" lon="3.1855335"><ele>77.31</ele><time>2026-4-28T20:38:57Z</time></trkpt>
<trkpt lat="48.9688343" lon="3.1854587"><ele>76.72</ele><time>2026-4-28T20:39:0Z</time></trkpt>
<trkpt lat="48.9690187" lon="3.1853897"><ele>75.52</ele><time>2026-4-28T20:39:3Z</time></trkpt>
<trkpt lat="48.9691903" lon="3.1852982"><ele>77.17</ele><time>2026-4-28T20:39:6Z</time></trkpt>
<trkpt lat="48.9693806" lon="3.1851730"><ele>77.33</ele><time>2026-4-28T20:39:9Z</time></trkpt>
<trkpt lat="48.9695705" lon="3.1850715"><ele>77.18</ele><time>2026-4-28T20:39:12Z</time></trkpt>
<trkpt lat="48.9697717" lon="3.1849724"><ele>77.88</ele><time>2026-4-28T20:39:15Z</time></trkpt>
<trkpt lat="48.9699465" lon="3.1848666"><ele>75.78</ele><time>2026-4-28T20:39:18Z</time></trkpt>
<trkpt lat="48.9701269" lon="3.1847411"><ele>76.09</ele><time>2026-4-28T20:39:21Z</time></trkpt>
<trkpt lat="48.9703277" lon="3.1846218"><ele>75.78</ele><time>2026-4-28T20:39:24Z</time></trkpt>
<trkpt lat="48.9704883" lon="3.1844680"><ele>74.93</ele><time>2026-4-28T20:39:27Z</time></trkpt>
<trkpt lat="48.9703965" lon="3.1841974"><ele>74.84</ele><time>2026-4-28T20:39:30Z</time></trkpt>
<trkpt lat="48.9702616" lon="3.1839647"><ele>79.59</ele><time>2026-4-28T20:39:33Z</time></trkpt>
<trkpt lat="48.9700731" lon="3.1839670"><ele>82.61</ele><time>2026-4-28T20:39:36Z</time></trkpt>
<trkpt lat="48.9698968" lon="3.1840742"><ele>86.20</ele><time>2026-4-28T20:39:39Z</time></trkpt>
<trkpt lat="48.9697041" lon="3.1841786"><ele>88.98</ele><time>2026-4-28T20:39:42Z</time></trkpt>
<trkpt lat="48.9695246" lon="3.1842045"><ele>88.68</ele><time>2026-4-28T20:39:45Z</time></trkpt>
<trkpt lat="48.9693271" lon="3.1842554"><ele>91.37</ele><time>2026-4-28T20:39:48Z</time></trkpt>
<trkpt lat="48.9691527" lon="3.1843394"><ele>93.52</ele><time>2026-4-28T20:39:51Z</time></trkpt>
<trkpt lat="48.9689876" lon="3.1844662"><ele>94.27</ele><time>2026-4-28T20:39:54Z</time></trkpt>
<trkpt lat="48.9688162" lon="3.1845706"><ele>94.28</ele><time>2026-4-28T20:39:57Z</time></trkpt>
<trkpt lat="48.9686424" lon="3.1847073"><ele>95.94</ele><time>2026-4-28T20:40:0Z</time></trkpt>
<trkpt lat="48.9684539" lon="3.1848067"><ele>97.69</ele><time>2026-4-28T20:40:3Z</time></trkpt>
<trkpt lat="48.9682736" lon="3.1848823"><ele>102.32</ele><time>2026-4-28T20:40:6Z</time></trkpt>
<trkpt lat="48.9680752" lon="3.1849100"><ele>106.47</ele><time>2026-4-28T20:40:9Z</time></trkpt>
<trkpt lat="48.9678779" lon="3.1849599"><ele>107.76</ele><time>2026-4-28T20:40:12Z</time></trkpt>
<trkpt lat="48.9676906" lon="3.1849136"><ele>108.08</ele><time>2026-4-28T20:40:15Z</time></trkpt>
<trkpt lat="48.9675063" lon="3.1849244"><ele>110.18</ele><time>2026-4-28T20:40:18Z</time></trkpt>
<trkpt lat="48.9673048" lon="3.1848661"><ele>111.83</ele><time>2026-4-28T20:40:21Z</time></trkpt>
<trkpt lat="48.9671252" lon="3.1848264"><ele>113.39</ele><time>2026-4-28T20:40:24Z</time></trkpt>
<trkpt lat="48.9669142" lon="3.1847526"><ele>113.66</ele><time>2026-4-28T20:40:27Z</time></trkpt>
<trkpt lat="48.9667144" lon="3.1846174"><ele>114.98</ele><time>2026-4-28T20:40:30Z</time></trkpt>
<trkpt lat="48.9665447" lon="3.1845224"><ele>116.63</ele><time>2026-4-28T20:40:33Z</time></trkpt>
<trkpt lat="48.9663627" lon="3.1844194"><ele>120.44</ele><time>2026-4-28T20:40:36Z</time></trkpt>
<trkpt lat="48.9661860" lon="3.1843384"><ele>123.23</ele><time>2026-4-28T20:40:39Z</time></trkpt>
<trkpt lat="48.9660010" lon="3.1842116"><ele>124.16</ele><time>2026-4-28T20:40:42Z</time></trkpt>
<trkpt lat="48.9658159" lon="3.1840935"><ele>128.55</ele><time>2026-4-28T20:40:45Z</time></trkpt>
<trkpt lat="48.9656399" lon="3.1839637"><ele>130.78</ele><time>2026-4-28T20:40:48Z</time></trkpt>
<trkpt lat="48.9654582" lon="3.1838971"><ele>137.81</ele><time>2026-4-28T20:40:51Z</time></trkpt>
<trkpt lat="48.9653149" lon="3.1837023"><ele>133.11</ele><time>2026-4-28T20:40:54Z</time></trkpt>
<trkpt lat="48.9651687" lon="3.1835300"><ele>134.61</ele><time>2026-4-28T20:40:57Z</time></trkpt>
<trkpt lat="48.9649929" lon="3.1833458"><ele>134.95</ele><time>2026-4-28T20:41:0Z</time></trkpt>
<trkpt lat="48.9648230" lon="3.1832036"><ele>137.62</ele><time>2026-4-28T20:41:3Z</time></trkpt>
<trkpt lat="48.9646871" lon="3.1829976"><ele>142.17</ele><time>2026-4-28T20:41:6Z</time></trkpt>
<trkpt lat="48.9645797" lon="3.1827501"><ele>140.17</ele><time>2026-4-28T20:41:9Z</time></trkpt>
<trkpt lat="48.9644981" lon="3.1825036"><ele>138.57</ele><time>2026-4-28T20:41:12Z</time></trkpt>
<trkpt lat="48.9643716" lon="3.1822763"><ele>141.91</ele><time>2026-4-28T20:41:15Z</time></trkpt>
<trkpt lat="48.9642366" lon="3.1820709"><ele>145.16</ele><time>2026-4-28T20:41:18Z</time></trkpt>
<trkpt lat="48.9640905" lon="3.1818461"><ele>148.38</ele><time>2026-4-28T20:41:21Z</time></trkpt>
<trkpt lat="48.9639406" lon="3.1816479"><ele>143.82</ele><time>2026-4-28T20:41:24Z</time></trkpt>
<trkpt lat="48.9637713" lon="3.1814884"><ele>142.54</ele><time>2026-4-28T20:41:27Z</time></trkpt>
<trkpt lat="48.9636383" lon="3.1813031"><ele>145.47</ele><time>2026-4-28T20:41:30Z</time></trkpt>
<trkpt lat="48.9635158" lon="3.1810682"><ele>146.88</ele><time>2026-4-28T20:41:33Z</time></trkpt>
<trkpt lat="48.9634403" lon="3.1808191"><ele>149.57</ele><time>2026-4-28T20:41:36Z</time></trkpt>
<trkpt lat="48.9633682" lon="3.1805217"><ele>149.61</ele><time>2026-4-28T20:41:39Z</time></trkpt>
<trkpt lat="48.9632675" lon="3.1802628"><ele>149.40</ele><time>2026-4-28T20:41:42Z</time></trkpt>
<trkpt lat="48.9632332" lon="3.1799778"><ele>150.18</ele><time>2026-4-28T20:41:45Z</time></trkpt>
<trkpt lat="48.9632511" lon="3.1796698"><ele>152.48</ele><time>2026-4-28T20:41:48Z</time></trkpt>
<trkpt lat="48.9633037" lon="3.1794004"><ele>153.44</ele><time>2026-4-28T20:41:51Z</time></trkpt>
<trkpt lat="48.9632987" lon="3.1791237"><ele>153.69</ele><time>2026-4-28T20:41:54Z</time></trkpt>
<trkpt lat="48.9634530" lon="3.1789595"><ele>162.43</ele><time>2026-4-28T20:41:57Z</time></trkpt>
<trkpt lat="48.9635997" lon="3.1787904"><ele>159.60</ele><time>2026-4-28T20:42:0Z</time></trkpt>
<trkpt lat="48.9634353" lon="3.1786769"><ele>158.37</ele><time>2026-4-28T20:42:3Z</time></trkpt>
<trkpt lat="48.9632546" lon="3.1786383"><ele>159.27</ele><time>2026-4-28T20:42:6Z</time></trkpt>
<trkpt lat="48.9630540" lon="3.1785951"><ele>159.34</ele><time>2026-4-28T20:42:9Z</time></trkpt>
<trkpt lat="48.9628759" lon="3.1785270"><ele>160.17</ele><time>2026-4-28T20:42:12Z</time></trkpt>
<trkpt lat="48.9626832" lon="3.1784486"><ele>160.96</ele><time>2026-4-28T20:42:15Z</time></trkpt>
<trkpt lat="48.9624700" lon="3.1783822"><ele>161.92</ele><time>2026-4-28T20:42:18Z</time></trkpt>
<trkpt lat="48.9622900" lon="3.1783380"><ele>162.13</ele><time>2026-4-28T20:42:21Z</time></trkpt>
<trkpt lat="48.9621056" lon="3.1782689"><ele>162.04</ele><time>2026-4-28T20:42:24Z</time></trkpt>
<trkpt lat="48.9619240" lon="3.1781795"><ele>162.01</ele><time>2026-4-28T20:42:27Z</time></trkpt>
<trkpt lat="48.9617545" lon="3.1780503"><ele>161.41</ele><time>2026-4-28T20:42:30Z</time></trkpt>
<trkpt lat="48.9615662" lon="3.1779135"><ele>160.88</ele><time>2026-4-28T20:42:33Z</time></trkpt>
<trkpt lat="48.9613369" lon="3.1778634"><ele>160.10</ele><time>2026-4-28T20:42:36Z</time></trkpt>
<trkpt lat="48.9611198" lon="3.1779245"><ele>160.28</ele><time>2026-4-28T20:42:39Z</time></trkpt>
<trkpt lat="48.9608922" lon="3.1780554"><ele>161.03</ele><time>2026-4-28T20:42:42Z</time></trkpt>
<trkpt lat="48.9607022" lon="3.1781543"><ele>162.02</ele><time>2026-4-28T20:42:45Z</time></trkpt>
<trkpt lat="48.9605234" lon="3.1782182"><ele>161.85</ele><time>2026-4-28T20:42:48Z</time></trkpt>
<trkpt lat="48.9603352" lon="3.1781841"><ele>161.91</ele><time>2026-4-28T20:42:51Z</time></trkpt>
<trkpt lat="48.9601333" lon="3.1781252"><ele>162.00</ele><time>2026-4-28T20:42:54Z</time></trkpt>
<trkpt lat="48.9599091" lon="3.1780287"><ele>157.89</ele><time>2026-4-28T20:42:57Z</time></trkpt>
<trkpt lat="48.9597091" lon="3.1778902"><ele>153.64</ele><time>2026-4-28T20:43:0Z</time></trkpt>
<trkpt lat="48.9594986" lon="3.1778682"><ele>156.92</ele><time>2026-4-28T20:43:3Z</time></trkpt>
<trkpt lat="48.9592747" lon="3.1778344"><ele>157.53</ele><time>2026-4-28T20:43:6Z</time></trkpt>
<trkpt lat="48.9590584" lon="3.1778001"><ele>159.43</ele><time>2026-4-28T20:43:9Z</time></trkpt>
<trkpt lat="48.9588903" lon="3.1776028"><ele>157.44</ele><time>2026-4-28T20:43:12Z</time></trkpt>
<trkpt lat="48.9587280" lon="3.1774075"><ele>156.63</ele><time>2026-4-28T20:43:15Z</time></trkpt>
<trkpt lat="48.9585402" lon="3.1772610"><ele>154.90</ele><time>2026-4-28T20:43:18Z</time></trkpt>
<trkpt lat="48.9583957" lon="3.1770878"><ele>153.01</ele><time>2026-4-28T20:43:21Z</time></trkpt>
<trkpt lat="48.9583564" lon="3.1768003"><ele>153.11</ele><time>2026-4-28T20:43:24Z</time></trkpt>
<trkpt lat="48.9583500" lon="3.1764880"><ele>153.73</ele><time>2026-4-28T20:43:27Z</time></trkpt>
<trkpt lat="48.9584024" lon="3.1761898"><ele>158.29</ele><time>2026-4-28T20:43:30Z</time></trkpt>
<trkpt lat="48.9584664" lon="3.1759169"><ele>160.53</ele><time>2026-4-28T20:43:33Z</time></trkpt>
<trkpt lat="48.9585432" lon="3.1756088"><ele>162.01</ele><time>2026-4-28T20:43:36Z</time></trkpt>
<trkpt lat="48.9586064" lon="3.1753104"><ele>162.75</ele><time>2026-4-28T20:43:39Z</time></trkpt>
<trkpt lat="48.9586669" lon="3.1750342"><ele>164.25</ele><time>2026-4-28T20:43:42Z</time></trkpt>
<trkpt lat="48.9587343" lon="3.1747749"><ele>163.73</ele><time>2026-4-28T20:43:45Z</time></trkpt>
<trkpt lat="48.9587993" lon="3.1745019"><ele>164.73</ele><time>2026-4-28T20:43:48Z</time></trkpt>
<trkpt lat="48.9588591" lon="3.1742213"><ele>166.61</ele><time>2026-4-28T20:43:51Z</time></trkpt>
<trkpt lat="48.9589359" lon="3.1739440"><ele>167.74</ele><time>2026-4-28T20:43:54Z</time></trkpt>
<trkpt lat="48.9590064" lon="3.1736480"><ele>171.05</ele><time>2026-4-28T20:43:57Z</time></trkpt>
<trkpt lat="48.9590036" lon="3.1733646"><ele>172.80</ele><time>2026-4-28T20:44:0Z</time></trkpt>
<trkpt lat="48.9589463" lon="3.1730791"><ele>176.67</ele><time>2026-4-28T20:44:3Z</time></trkpt>
<trkpt lat="48.9589898" lon="3.1727860"><ele>177.87</ele><time>2026-4-28T20:44:6Z</time></trkpt>
<trkpt lat="48.9590706" lon="3.1725157"><ele>177.87</ele><time>2026-4-28T20:44:9Z</time></trkpt>
<trkpt lat="48.9591248" lon="3.1722535"><ele>177.58</ele><time>2026-4-28T20:44:12Z</time></trkpt>
<trkpt lat="48.9591747" lon="3.1719676"><ele>179.81</ele><time>2026-4-28T20:44:15Z</time></trkpt>
<trkpt lat="48.9592522" lon="3.1716938"><ele>179.21</ele><time>2026-4-28T20:44:18Z</time></trkpt>
<trkpt lat="48.9593278" lon="3.1714031"><ele>179.02</ele><time>2026-4-28T20:44:21Z</time></trkpt>
<trkpt lat="48.9594114" lon="3.1711107"><ele>177.55</ele><time>2026-4-28T20:44:24Z</time></trkpt>
<trkpt lat="48.9594937" lon="3.1708644"><ele>176.38</ele><time>2026-4-28T20:44:27Z</time></trkpt>
<trkpt lat="48.9595021" lon="3.1705500"><ele>175.87</ele><time>2026-4-28T20:44:30Z</time></trkpt>
<trkpt lat="48.9594157" lon="3.1702384"><ele>176.20</ele><time>2026-4-28T20:44:33Z</time></trkpt>
<trkpt lat="48.9592984" lon="3.1700224"><ele>176.18</ele><time>2026-4-28T20:44:36Z</time></trkpt>
<trkpt lat="48.9591829" lon="3.1698106"><ele>175.87</ele><time>2026-4-28T20:44:39Z</time></trkpt>
<trkpt lat="48.9590529" lon="3.1695162"><ele>175.83</ele><time>2026-4-28T20:44:42Z</time></trkpt>
<trkpt lat="48.9589578" lon="3.1692021"><ele>174.52</ele><time>2026-4-28T20:44:45Z</time></trkpt>
<trkpt lat="48.9589431" lon="3.1688628"><ele>174.49</ele><time>2026-4-28T20:44:48Z</time></trkpt>
<trkpt lat="48.9590562" lon="3.1685483"><ele>174.03</ele><time>2026-4-28T20:44:51Z</time></trkpt>
<trkpt lat="48.9591560" lon="3.1683139"><ele>172.97</ele><time>2026-4-28T20:44:54Z</time></trkpt>
<trkpt lat="48.9592563" lon="3.1680064"><ele>171.15</ele><time>2026-4-28T20:44:57Z</time></trkpt>
<trkpt lat="48.9593220" lon="3.1676790"><ele>172.24</ele><time>2026-4-28T20:45:0Z</time></trkpt>
<trkpt lat="48.9593615" lon="3.1673355"><ele>173.46</ele><time>2026-4-28T20:45:3Z</time></trkpt>
<trkpt lat="48.9593600" lon="3.1669951"><ele>171.06</ele><time>2026-4-28T20:45:6Z</time></trkpt>
<trkpt lat="48.9593464" lon="3.1667024"><ele>170.77</ele><time>2026-4-28T20:45:9Z</time></trkpt>
<trkpt lat="48.9593814" lon="3.1664175"><ele>167.34</ele><time>2026-4-28T20:45:12Z</time></trkpt>
<trkpt lat="48.9594122" lon="3.1660561"><ele>168.74</ele><time>2026-4-28T20:45:15Z</time></trkpt>
<trkpt lat="48.9594433" lon="3.1657541"><ele>168.80</ele><time>2026-4-28T20:45:18Z</time></trkpt>
<trkpt lat="48.9594559" lon="3.1653786"><ele>167.51</ele><time>2026-4-28T20:45:21Z</time></trkpt>
<trkpt lat="48.9594323" lon="3.1650122"><ele>166.24</ele><time>2026-4-28T20:45:24Z</time></trkpt>
<trkpt lat="48.9594107" lon="3.1646479"><ele>164.18</ele><time>2026-4-28T20:45:27Z</time></trkpt>
<trkpt lat="48.9593993" lon="3.1643081"><ele>160.69</ele><time>2026-4-28T20:45:30Z</time></trkpt>
<trkpt lat="48.9593657" lon="3.1639580"><ele>159.69</ele><time>2026-4-28T20:45:33Z</time></trkpt>
<trkpt lat="48.9593357" lon="3.1635781"><ele>158.49</ele><time>2026-4-28T20:45:36Z</time></trkpt>
<trkpt lat="48.9593267" lon="3.1632967"><ele>157.22</ele><time>2026-4-28T20:45:39Z</time></trkpt>
<trkpt lat="48.9593212" lon="3.1630095"><ele>155.78</ele><time>2026-4-28T20:45:42Z</time></trkpt>
<trkpt lat="48.9592800" lon="3.1627122"><ele>153.86</ele><time>2026-4-28T20:45:45Z</time></trkpt>
<trkpt lat="48.9592072" lon="3.1624277"><ele>152.54</ele><time>2026-4-28T20:45:48Z</time></trkpt>
<trkpt lat="48.9591154" lon="3.1621579"><ele>150.95</ele><time>2026-4-28T20:45:51Z</time></trkpt>
<trkpt lat="48.9590215" lon="3.1619134"><ele>148.70</ele><time>2026-4-28T20:45:54Z</time></trkpt>
<trkpt lat="48.9588578" lon="3.1616091"><ele>147.06</ele><time>2026-4-28T20:45:57Z</time></trkpt>
<trkpt lat="48.9586901" lon="3.1613297"><ele>145.76</ele><time>2026-4-28T20:46:0Z</time></trkpt>
<trkpt lat="48.9585405" lon="3.1610815"><ele>144.91</ele><time>2026-4-28T20:46:3Z</time></trkpt>
<trkpt lat="48.9583971" lon="3.1608386"><ele>144.46</ele><time>2026-4-28T20:46:6Z</time></trkpt>
<trkpt lat="48.9582727" lon="3.1605961"><ele>143.76</ele><time>2026-4-28T20:46:9Z</time></trkpt>
<trkpt lat="48.9581707" lon="3.1603412"><ele>142.94</ele><time>2026-4-28T20:46:12Z</time></trkpt>
<trkpt lat="48.9581529" lon="3.1600338"><ele>141.51</ele><time>2026-4-28T20:46:15Z</time></trkpt>
<trkpt lat="48.9582906" lon="3.1597693"><ele>139.70</ele><time>2026-4-28T20:46:18Z</time></trkpt>
<trkpt lat="48.9584615" lon="3.1595180"><ele>136.99</ele><time>2026-4-28T20:46:21Z</time></trkpt>
<trkpt lat="48.9585590" lon="3.1592688"><ele>135.68</ele><time>2026-4-28T20:46:24Z</time></trkpt>
<trkpt lat="48.9586527" lon="3.1589916"><ele>135.64</ele><time>2026-4-28T20:46:27Z</time></trkpt>
<trkpt lat="48.9587567" lon="3.1587079"><ele>134.42</ele><time>2026-4-28T20:46:30Z</time></trkpt>
<trkpt lat="48.9588611" lon="3.1583953"><ele>132.72</ele><time>2026-4-28T20:46:33Z</time></trkpt>
<trkpt lat="48.9589802" lon="3.1580796"><ele>130.59</ele><time>2026-4-28T20:46:36Z</time></trkpt>
<trkpt lat="48.9591097" lon="3.1577815"><ele>127.92</ele><time>2026-4-28T20:46:39Z</time></trkpt>
<trkpt lat="48.9592585" lon="3.1574823"><ele>125.47</ele><time>2026-4-28T20:46:42Z</time></trkpt>
<trkpt lat="48.9593994" lon="3.1571907"><ele>122.61</ele><time>2026-4-28T20:46:45Z</time></trkpt>
<trkpt lat="48.9594916" lon="3.1568678"><ele>120.00</ele><time>2026-4-28T20:46:48Z</time></trkpt>
<trkpt lat="48.9595364" lon="3.1565202"><ele>116.79</ele><time>2026-4-28T20:46:51Z</time></trkpt>
<trkpt lat="48.9595228" lon="3.1561736"><ele>114.55</ele><time>2026-4-28T20:46:54Z</time></trkpt>
<trkpt lat="48.9594675" lon="3.1558243"><ele>112.55</ele><time>2026-4-28T20:46:57Z</time></trkpt>
<trkpt lat="48.9594102" lon="3.1554686"><ele>111.22</ele><time>2026-4-28T20:47:0Z</time></trkpt>
<trkpt lat="48.9594207" lon="3.1550860"><ele>109.56</ele><time>2026-4-28T20:47:3Z</time></trkpt>
<trkpt lat="48.9594891" lon="3.1547177"><ele>107.18</ele><time>2026-4-28T20:47:6Z</time></trkpt>
<trkpt lat="48.9595587" lon="3.1543430"><ele>104.93</ele><time>2026-4-28T20:47:9Z</time></trkpt>
<trkpt lat="48.9596214" lon="3.1539502"><ele>102.63</ele><time>2026-4-28T20:47:12Z</time></trkpt>
<trkpt lat="48.9596424" lon="3.1535728"><ele>101.85</ele><time>2026-4-28T20:47:15Z</time></trkpt>
<trkpt lat="48.9596173" lon="3.1532411"><ele>101.31</ele><time>2026-4-28T20:47:18Z</time></trkpt>
<trkpt lat="48.9596187" lon="3.1529308"><ele>101.71</ele><time>2026-4-28T20:47:21Z</time></trkpt>
<trkpt lat="48.9597127" lon="3.1526405"><ele>101.88</ele><time>2026-4-28T20:47:24Z</time></trkpt>
<trkpt lat="48.9598000" lon="3.1523583"><ele>100.70</ele><time>2026-4-28T20:47:27Z</time></trkpt>
<trkpt lat="48.9598784" lon="3.1520433"><ele>98.20</ele><time>2026-4-28T20:47:30Z</time></trkpt>
<trkpt lat="48.9599247" lon="3.1517151"><ele>97.01</ele><time>2026-4-28T20:47:33Z</time></trkpt>
<trkpt lat="48.9599320" lon="3.1514292"><ele>95.37</ele><time>2026-4-28T20:47:36Z</time></trkpt>
<trkpt lat="48.9599402" lon="3.1511482"><ele>92.96</ele><time>2026-4-28T20:47:39Z</time></trkpt>
<trkpt lat="48.9599278" lon="3.1508612"><ele>90.70</ele><time>2026-4-28T20:47:42Z</time></trkpt>
<trkpt lat="48.9598976" lon="3.1505829"><ele>89.86</ele><time>2026-4-28T20:47:45Z</time></trkpt>
<trkpt lat="48.9598639" lon="3.1502739"><ele>88.48</ele><time>2026-4-28T20:47:48Z</time></trkpt>
<trkpt lat="48.9598464" lon="3.1499994"><ele>88.16</ele><time>2026-4-28T20:47:51Z</time></trkpt>
<trkpt lat="48.9597306" lon="3.1497517"><ele>67.80</ele><time>2026-4-28T20:47:54Z</time></trkpt>
<trkpt lat="48.9595941" lon="3.1495407"><ele>68.39</ele><time>2026-4-28T20:47:57Z</time></trkpt>
<trkpt lat="48.9594810" lon="3.1493085"><ele>68.06</ele><time>2026-4-28T20:48:0Z</time></trkpt>
<trkpt lat="48.9593203" lon="3.1490722"><ele>66.91</ele><time>2026-4-28T20:48:3Z</time></trkpt>
<trkpt lat="48.9591510" lon="3.1488496"><ele>65.90</ele><time>2026-4-28T20:48:6Z</time></trkpt>
<trkpt lat="48.9590080" lon="3.1486294"><ele>65.92</ele><time>2026-4-28T20:48:9Z</time></trkpt>
<trkpt lat="48.9589737" lon="3.1483465"><ele>65.37</ele><time>2026-4-28T20:48:12Z</time></trkpt>
<trkpt lat="48.9590591" lon="3.1480983"><ele>63.35</ele><time>2026-4-28T20:48:15Z</time></trkpt>
<trkpt lat="48.9592140" lon="3.1479055"><ele>62.57</ele><time>2026-4-28T20:48:18Z</time></trkpt>
<trkpt lat="48.9594091" lon="3.1477636"><ele>61.11</ele><time>2026-4-28T20:48:21Z</time></trkpt>
<trkpt lat="48.9595901" lon="3.1476309"><ele>58.93</ele><time>2026-4-28T20:48:24Z</time></trkpt>
<trkpt lat="48.9596333" lon="3.1473647"><ele>55.75</ele><time>2026-4-28T20:48:27Z</time></trkpt>
<trkpt lat="48.9595171" lon="3.1471281"><ele>58.91</ele><time>2026-4-28T20:48:30Z</time></trkpt>
<trkpt lat="48.9593899" lon="3.1468824"><ele>57.91</ele><time>2026-4-28T20:48:33Z</time></trkpt>
<trkpt lat="48.9592476" lon="3.1466704"><ele>57.26</ele><time>2026-4-28T20:48:36Z</time></trkpt>
<trkpt lat="48.9591743" lon="3.1464023"><ele>55.25</ele><time>2026-4-28T20:48:39Z</time></trkpt>
<trkpt lat="48.9592694" lon="3.1461265"><ele>54.51</ele><time>2026-4-28T20:48:42Z</time></trkpt>
<trkpt lat="48.9593635" lon="3.1458655"><ele>53.07</ele><time>2026-4-28T20:48:45Z</time></trkpt>
<trkpt lat="48.9592223" lon="3.1456317"><ele>54.64</ele><time>2026-4-28T20:48:48Z</time></trkpt>
<trkpt lat="48.9590829" lon="3.1454280"><ele>55.07</ele><time>2026-4-28T20:48:51Z</time></trkpt>
<trkpt lat="48.9589364" lon="3.1451995"><ele>54.71</ele><time>2026-4-28T20:48:54Z</time></trkpt>
<trkpt lat="48.9588352" lon="3.1449475"><ele>54.94</ele><time>2026-4-28T20:48:57Z</time></trkpt>
<trkpt lat="48.9589350" lon="3.1446668"><ele>52.92</ele><time>2026-4-28T20:49:0Z</time></trkpt>
<trkpt lat="48.9590407" lon="3.1444328"><ele>51.06</ele><time>2026-4-28T20:49:3Z</time></trkpt>
<trkpt lat="48.9591440" lon="3.1441821"><ele>48.13</ele><time>2026-4-28T20:49:6Z</time></trkpt>
<trkpt lat="48.9591034" lon="3.1439036"><ele>46.74</ele><time>2026-4-28T20:49:9Z</time></trkpt>
<trkpt lat="48.9589639" lon="3.1437019"><ele>48.42</ele><time>2026-4-28T20:49:12Z</time></trkpt>
<trkpt lat="48.9589212" lon="3.1434054"><ele>48.80</ele><time>2026-4-28T20:49:15Z</time></trkpt>
<trkpt lat="48.9588047" lon="3.1431952"><ele>48.85</ele><time>2026-4-28T20:49:18Z</time></trkpt>
</trkseg></trk></gpx>